<?xml version='1.0' encoding='UTF-8'?><gpx version="1.1" creator="JPX - https://github.com/jenetics/jpx" xmlns="http://www.topografix.com/GPX/1/1"><trk><trkseg><trkpt lat="43.55544359356356" lon="5.404479700116215"><ele>319.0</ele><time>2026-03-25T15:27:28.001Z</time></trkpt><trkpt lat="43.5553822796597" lon="5.404386764894827"><ele>319.0</ele><time>2026-03-25T15:27:29.001Z</time></trkpt><trkpt lat="43.55532000375039" lon="5.404311521979971"><ele>319.0</ele><time>2026-03-25T15:27:30.001Z</time></trkpt><trkpt lat="43.55528037703386" lon="5.404239530784464"><ele>319.0</ele><time>2026-03-25T15:27:31.001Z</time></trkpt><trkpt lat="43.55523535715425" lon="5.404162630566471"><ele>319.0</ele><time>2026-03-25T15:27:32.001Z</time></trkpt><trkpt lat="43.5551709298422" lon="5.40408062772148"><ele>319.0</ele><time>2026-03-25T15:27:33.001Z</time></trkpt><trkpt lat="43.55510018770167" lon="5.40398850860699"><ele>318.8</ele><time>2026-03-25T15:27:34.001Z</time></trkpt><trkpt lat="43.55502519026154" lon="5.403889268642847"><ele>318.59999999999997</ele><time>2026-03-25T15:27:35.001Z</time></trkpt><trkpt lat="43.554964245193716" lon="5.403789675568888"><ele>318.4</ele><time>2026-03-25T15:27:36.001Z</time></trkpt><trkpt lat="43.55491369658953" lon="5.403668434908695"><ele>318.2</ele><time>2026-03-25T15:27:37.001Z</time></trkpt><trkpt lat="43.554886660479454" lon="5.4035403954193075"><ele>318.0</ele><time>2026-03-25T15:27:38.001Z</time></trkpt><trkpt lat="43.55489307431935" lon="5.403401502164057"><ele>318.0</ele><time>2026-03-25T15:27:39.001Z</time></trkpt><trkpt lat="43.554929696522" lon="5.403261604947608"><ele>318.0</ele><time>2026-03-25T15:27:40.001Z</time></trkpt><trkpt lat="43.55497348671654" lon="5.4031227896212135"><ele>318.0</ele><time>2026-03-25T15:27:41.001Z</time></trkpt><trkpt lat="43.55502635317565" lon="5.402971143023936"><ele>318.0</ele><time>2026-03-25T15:27:42.001Z</time></trkpt><trkpt lat="43.55507760547183" lon="5.4028125623540095"><ele>318.0</ele><time>2026-03-25T15:27:43.001Z</time></trkpt><trkpt lat="43.555129618379404" lon="5.402644209248038"><ele>318.0</ele><time>2026-03-25T15:27:44.001Z</time></trkpt><trkpt lat="43.55518273622913" lon="5.402468238897843"><ele>318.0</ele><time>2026-03-25T15:27:45.001Z</time></trkpt><trkpt lat="43.55523912687155" lon="5.402286848598695"><ele>318.0</ele><time>2026-03-25T15:27:46.002Z</time></trkpt><trkpt lat="43.55529659720405" lon="5.402095954153694"><ele>317.6666666666667</ele><time>2026-03-25T15:27:47.002Z</time></trkpt><trkpt lat="43.55536011172825" lon="5.4019060128962355"><ele>317.33333333333337</ele><time>2026-03-25T15:27:48.002Z</time></trkpt><trkpt lat="43.55543172581527" lon="5.401712505002738"><ele>317.0</ele><time>2026-03-25T15:27:49.002Z</time></trkpt><trkpt lat="43.55551004875885" lon="5.40151907353866"><ele>316.33333333333337</ele><time>2026-03-25T15:27:50.002Z</time></trkpt><trkpt lat="43.55559219895566" lon="5.401317774285787"><ele>315.6666666666667</ele><time>2026-03-25T15:27:51.002Z</time></trkpt><trkpt lat="43.55567602447772" lon="5.401119673924532"><ele>315.0</ele><time>2026-03-25T15:27:52.002Z</time></trkpt><trkpt lat="43.55576732131355" lon="5.400922174504119"><ele>315.0</ele><time>2026-03-25T15:27:53.002Z</time></trkpt><trkpt lat="43.55586742263402" lon="5.4007294962782435"><ele>315.0</ele><time>2026-03-25T15:27:54.002Z</time></trkpt><trkpt lat="43.5559711551302" lon="5.400539170966744"><ele>315.0</ele><time>2026-03-25T15:27:55.002Z</time></trkpt><trkpt lat="43.55607993680324" lon="5.4003464266390395"><ele>315.3333333333333</ele><time>2026-03-25T15:27:56.002Z</time></trkpt><trkpt lat="43.55618354629123" lon="5.400148577776846"><ele>315.66666666666663</ele><time>2026-03-25T15:27:57.002Z</time></trkpt><trkpt lat="43.5562877864654" lon="5.399947133587419"><ele>316.0</ele><time>2026-03-25T15:27:58.002Z</time></trkpt><trkpt lat="43.556397787445285" lon="5.39975306656447"><ele>315.5</ele><time>2026-03-25T15:27:59.002Z</time></trkpt><trkpt lat="43.55649351133072" lon="5.39957756588395"><ele>315.0</ele><time>2026-03-25T15:28:00.002Z</time></trkpt><trkpt lat="43.55658034747659" lon="5.399415650293395"><ele>314.5</ele><time>2026-03-25T15:28:01.002Z</time></trkpt><trkpt lat="43.556674563512345" lon="5.399268235919747"><ele>314.0</ele><time>2026-03-25T15:28:02.002Z</time></trkpt><trkpt lat="43.556787473091106" lon="5.399118260932628"><ele>314.0</ele><time>2026-03-25T15:28:03.002Z</time></trkpt><trkpt lat="43.55691245120616" lon="5.398981526223339"><ele>314.0</ele><time>2026-03-25T15:28:04.002Z</time></trkpt><trkpt lat="43.55704349663518" lon="5.398845110954006"><ele>314.0</ele><time>2026-03-25T15:28:05.002Z</time></trkpt><trkpt lat="43.557169307485104" lon="5.398719442039471"><ele>313.6666666666667</ele><time>2026-03-25T15:28:06.002Z</time></trkpt><trkpt lat="43.55728708574912" lon="5.398590835914299"><ele>313.3333333333333</ele><time>2026-03-25T15:28:07.002Z</time></trkpt><trkpt lat="43.557398490216464" lon="5.398447283625481"><ele>313.0</ele><time>2026-03-25T15:28:08.002Z</time></trkpt><trkpt lat="43.55751102074966" lon="5.398296167263648"><ele>313.0</ele><time>2026-03-25T15:28:09.002Z</time></trkpt><trkpt lat="43.55761680914882" lon="5.39813595421033"><ele>313.0</ele><time>2026-03-25T15:28:10.002Z</time></trkpt><trkpt lat="43.55771860706901" lon="5.397969152611146"><ele>313.0</ele><time>2026-03-25T15:28:11.002Z</time></trkpt><trkpt lat="43.55782744116132" lon="5.397804972301821"><ele>312.3333333333333</ele><time>2026-03-25T15:28:12.002Z</time></trkpt><trkpt lat="43.55794164282936" lon="5.397631614763996"><ele>311.6666666666667</ele><time>2026-03-25T15:28:13.002Z</time></trkpt><trkpt lat="43.55805306558032" lon="5.397449966632617"><ele>311.0</ele><time>2026-03-25T15:28:14.002Z</time></trkpt><trkpt lat="43.558155271476934" lon="5.397280672203898"><ele>310.0</ele><time>2026-03-25T15:28:15.002Z</time></trkpt><trkpt lat="43.55825478794867" lon="5.397116877275618"><ele>309.0</ele><time>2026-03-25T15:28:16.002Z</time></trkpt><trkpt lat="43.55835773927373" lon="5.396938955275963"><ele>308.0</ele><time>2026-03-25T15:28:17.002Z</time></trkpt><trkpt lat="43.55846063972566" lon="5.396751699778289"><ele>308.0</ele><time>2026-03-25T15:28:18.002Z</time></trkpt><trkpt lat="43.55856712713761" lon="5.396573681007942"><ele>308.0</ele><time>2026-03-25T15:28:19.002Z</time></trkpt><trkpt lat="43.55866886608447" lon="5.396413015019528"><ele>308.0</ele><time>2026-03-25T15:28:20.002Z</time></trkpt><trkpt lat="43.55877050420765" lon="5.396248667918818"><ele>308.33333333333337</ele><time>2026-03-25T15:28:21.002Z</time></trkpt><trkpt lat="43.55887572973812" lon="5.396079182147684"><ele>308.6666666666667</ele><time>2026-03-25T15:28:22.002Z</time></trkpt><trkpt lat="43.55898639216991" lon="5.395908849012361"><ele>309.0</ele><time>2026-03-25T15:28:23.002Z</time></trkpt><trkpt lat="43.5590918975221" lon="5.395731103554341"><ele>309.0</ele><time>2026-03-25T15:28:24.002Z</time></trkpt><trkpt lat="43.559192384015404" lon="5.395540457917293"><ele>309.0</ele><time>2026-03-25T15:28:25.002Z</time></trkpt><trkpt lat="43.5592813083966" lon="5.395329339729046"><ele>309.0</ele><time>2026-03-25T15:28:26.002Z</time></trkpt><trkpt lat="43.559359131601234" lon="5.395122569150313"><ele>308.3333333333333</ele><time>2026-03-25T15:28:27.002Z</time></trkpt><trkpt lat="43.559430344879466" lon="5.394940479411974"><ele>307.66666666666663</ele><time>2026-03-25T15:28:28.002Z</time></trkpt><trkpt lat="43.55951831548907" lon="5.394770838963694"><ele>307.0</ele><time>2026-03-25T15:28:29.002Z</time></trkpt><trkpt lat="43.55962593389832" lon="5.394615236538521"><ele>307.0</ele><time>2026-03-25T15:28:30.002Z</time></trkpt><trkpt lat="43.55973417746971" lon="5.394457860359655"><ele>307.0</ele><time>2026-03-25T15:28:31.002Z</time></trkpt><trkpt lat="43.559834928858585" lon="5.394282473564386"><ele>307.0</ele><time>2026-03-25T15:28:32.002Z</time></trkpt><trkpt lat="43.559919013148544" lon="5.394088110966064"><ele>307.0</ele><time>2026-03-25T15:28:33.002Z</time></trkpt><trkpt lat="43.559985882602206" lon="5.3938852763568015"><ele>307.0</ele><time>2026-03-25T15:28:34.002Z</time></trkpt><trkpt lat="43.56005326604865" lon="5.393678750779282"><ele>307.0</ele><time>2026-03-25T15:28:35.002Z</time></trkpt><trkpt lat="43.5601198055689" lon="5.393470386988801"><ele>306.3333333333333</ele><time>2026-03-25T15:28:36.002Z</time></trkpt><trkpt lat="43.56018429111962" lon="5.3932529833984315"><ele>305.6666666666667</ele><time>2026-03-25T15:28:37.002Z</time></trkpt><trkpt lat="43.560242445408335" lon="5.393028687619894"><ele>305.0</ele><time>2026-03-25T15:28:38.002Z</time></trkpt><trkpt lat="43.56029992943957" lon="5.392800021482777"><ele>304.6666666666667</ele><time>2026-03-25T15:28:39.002Z</time></trkpt><trkpt lat="43.560361545171695" lon="5.392568204564895"><ele>304.3333333333333</ele><time>2026-03-25T15:28:40.003Z</time></trkpt><trkpt lat="43.56041270312903" lon="5.392333473238423"><ele>304.0</ele><time>2026-03-25T15:28:41.003Z</time></trkpt><trkpt lat="43.56044514622577" lon="5.392090850206428"><ele>304.66666666666663</ele><time>2026-03-25T15:28:42.003Z</time></trkpt><trkpt lat="43.560480557215065" lon="5.391845351665341"><ele>305.3333333333333</ele><time>2026-03-25T15:28:43.003Z</time></trkpt><trkpt lat="43.56052301538888" lon="5.391600472707398"><ele>306.0</ele><time>2026-03-25T15:28:44.003Z</time></trkpt><trkpt lat="43.56057215244202" lon="5.391354374526968"><ele>305.6666666666667</ele><time>2026-03-25T15:28:45.003Z</time></trkpt><trkpt lat="43.56062607747268" lon="5.391113418845465"><ele>305.33333333333337</ele><time>2026-03-25T15:28:46.003Z</time></trkpt><trkpt lat="43.56067734850802" lon="5.390862617447465"><ele>305.0</ele><time>2026-03-25T15:28:47.003Z</time></trkpt><trkpt lat="43.560725457183416" lon="5.390610371972741"><ele>304.33333333333337</ele><time>2026-03-25T15:28:48.003Z</time></trkpt><trkpt lat="43.560771241487586" lon="5.39035636653181"><ele>303.6666666666667</ele><time>2026-03-25T15:28:49.003Z</time></trkpt><trkpt lat="43.5608146122288" lon="5.39009876574474"><ele>303.0</ele><time>2026-03-25T15:28:50.003Z</time></trkpt><trkpt lat="43.56086458116513" lon="5.389842220844439"><ele>303.3333333333333</ele><time>2026-03-25T15:28:51.003Z</time></trkpt><trkpt lat="43.56091507780555" lon="5.389585304374442"><ele>303.66666666666663</ele><time>2026-03-25T15:28:52.003Z</time></trkpt><trkpt lat="43.56096525599987" lon="5.389327896834019"><ele>304.0</ele><time>2026-03-25T15:28:53.003Z</time></trkpt><trkpt lat="43.561009790655056" lon="5.389069377110814"><ele>303.66666666666663</ele><time>2026-03-25T15:28:54.003Z</time></trkpt><trkpt lat="43.56105035494026" lon="5.388806165486671"><ele>303.3333333333333</ele><time>2026-03-25T15:28:55.003Z</time></trkpt><trkpt lat="43.5610928446138" lon="5.388541548626603"><ele>303.0</ele><time>2026-03-25T15:28:56.003Z</time></trkpt><trkpt lat="43.56113987312657" lon="5.388276783081766"><ele>303.0</ele><time>2026-03-25T15:28:57.003Z</time></trkpt><trkpt lat="43.56118765809202" lon="5.388011304500703"><ele>303.0</ele><time>2026-03-25T15:28:58.003Z</time></trkpt><trkpt lat="43.56123887271091" lon="5.387750569235131"><ele>303.0</ele><time>2026-03-25T15:28:59.003Z</time></trkpt><trkpt lat="43.56129780640003" lon="5.387495311400454"><ele>304.0</ele><time>2026-03-25T15:29:00.001Z</time></trkpt><trkpt lat="43.56135634373583" lon="5.387242971125555"><ele>305.0</ele><time>2026-03-25T15:29:01.001Z</time></trkpt><trkpt lat="43.56141500034557" lon="5.386993501188523"><ele>306.0</ele><time>2026-03-25T15:29:02.001Z</time></trkpt><trkpt lat="43.5614695396235" lon="5.386744831039836"><ele>306.0</ele><time>2026-03-25T15:29:03.001Z</time></trkpt><trkpt lat="43.56153057897216" lon="5.386502755126548"><ele>306.0</ele><time>2026-03-25T15:29:04.001Z</time></trkpt><trkpt lat="43.561594589023876" lon="5.386260331871422"><ele>306.0</ele><time>2026-03-25T15:29:05.001Z</time></trkpt><trkpt lat="43.5616623672616" lon="5.386018913423771"><ele>306.0</ele><time>2026-03-25T15:29:06.001Z</time></trkpt><trkpt lat="43.56173149977546" lon="5.38577655889641"><ele>306.0</ele><time>2026-03-25T15:29:07.001Z</time></trkpt><trkpt lat="43.5618097578443" lon="5.385534315853919"><ele>306.0</ele><time>2026-03-25T15:29:08.001Z</time></trkpt><trkpt lat="43.56189287557483" lon="5.385293877536315"><ele>306.3333333333333</ele><time>2026-03-25T15:29:09.001Z</time></trkpt><trkpt lat="43.561975008283866" lon="5.385057469786808"><ele>306.66666666666663</ele><time>2026-03-25T15:29:10.001Z</time></trkpt><trkpt lat="43.56204685333929" lon="5.384839192057334"><ele>307.0</ele><time>2026-03-25T15:29:11.001Z</time></trkpt><trkpt lat="43.562119095721286" lon="5.384637605846293"><ele>307.0</ele><time>2026-03-25T15:29:12.001Z</time></trkpt><trkpt lat="43.56219604634789" lon="5.384433080643193"><ele>307.0</ele><time>2026-03-25T15:29:13.001Z</time></trkpt><trkpt lat="43.562279759908634" lon="5.3842324485726545"><ele>307.0</ele><time>2026-03-25T15:29:14.001Z</time></trkpt><trkpt lat="43.562367661562675" lon="5.384031849302831"><ele>306.0</ele><time>2026-03-25T15:29:15.001Z</time></trkpt><trkpt lat="43.562456584593114" lon="5.383826202343602"><ele>305.0</ele><time>2026-03-25T15:29:16.001Z</time></trkpt><trkpt lat="43.56254035644101" lon="5.38361024974514"><ele>304.0</ele><time>2026-03-25T15:29:17.001Z</time></trkpt><trkpt lat="43.56260787939841" lon="5.383385075396336"><ele>304.0</ele><time>2026-03-25T15:29:18.001Z</time></trkpt><trkpt lat="43.562661559818324" lon="5.383148261229862"><ele>304.0</ele><time>2026-03-25T15:29:19.001Z</time></trkpt><trkpt lat="43.56273590896452" lon="5.382918978026413"><ele>304.0</ele><time>2026-03-25T15:29:20.001Z</time></trkpt><trkpt lat="43.56283320537584" lon="5.382701933667553"><ele>304.3333333333333</ele><time>2026-03-25T15:29:21.001Z</time></trkpt><trkpt lat="43.56293061879115" lon="5.382483027682519"><ele>304.6666666666667</ele><time>2026-03-25T15:29:22.001Z</time></trkpt><trkpt lat="43.56303027270313" lon="5.382258053125136"><ele>305.0</ele><time>2026-03-25T15:29:23.001Z</time></trkpt><trkpt lat="43.56312950655736" lon="5.382025002838523"><ele>303.0</ele><time>2026-03-25T15:29:24.001Z</time></trkpt><trkpt lat="43.56323184303629" lon="5.3817932457455"><ele>301.0</ele><time>2026-03-25T15:29:25.001Z</time></trkpt><trkpt lat="43.5633432544102" lon="5.381570210081491"><ele>299.0</ele><time>2026-03-25T15:29:26.001Z</time></trkpt><trkpt lat="43.563444906889096" lon="5.381337331180265"><ele>299.0</ele><time>2026-03-25T15:29:27.001Z</time></trkpt><trkpt lat="43.56354506471999" lon="5.381099757936055"><ele>299.0</ele><time>2026-03-25T15:29:28.001Z</time></trkpt><trkpt lat="43.5636467103204" lon="5.380868372163173"><ele>299.0</ele><time>2026-03-25T15:29:29.001Z</time></trkpt><trkpt lat="43.56373879908645" lon="5.380632886676959"><ele>299.6666666666667</ele><time>2026-03-25T15:29:30.001Z</time></trkpt><trkpt lat="43.56383865630275" lon="5.380393732651828"><ele>300.3333333333333</ele><time>2026-03-25T15:29:31.001Z</time></trkpt><trkpt lat="43.56393436997427" lon="5.380159818733838"><ele>301.0</ele><time>2026-03-25T15:29:32.001Z</time></trkpt><trkpt lat="43.564031429881354" lon="5.379921358599309"><ele>300.3333333333333</ele><time>2026-03-25T15:29:33.001Z</time></trkpt><trkpt lat="43.564122880377525" lon="5.3796805884005785"><ele>299.6666666666667</ele><time>2026-03-25T15:29:34.001Z</time></trkpt><trkpt lat="43.56421675481087" lon="5.379444138058961"><ele>299.0</ele><time>2026-03-25T15:29:35.001Z</time></trkpt><trkpt lat="43.56432358509591" lon="5.379210531070289"><ele>299.0</ele><time>2026-03-25T15:29:36.001Z</time></trkpt><trkpt lat="43.56443266478715" lon="5.378980709279685"><ele>299.0</ele><time>2026-03-25T15:29:37.001Z</time></trkpt><trkpt lat="43.564544168268284" lon="5.378749599350169"><ele>299.0</ele><time>2026-03-25T15:29:38.001Z</time></trkpt><trkpt lat="43.564637029313865" lon="5.37850804101331"><ele>299.0</ele><time>2026-03-25T15:29:39.001Z</time></trkpt><trkpt lat="43.56473302855545" lon="5.378268717420982"><ele>299.0</ele><time>2026-03-25T15:29:40.001Z</time></trkpt><trkpt lat="43.56482433043654" lon="5.378054513795791"><ele>299.0</ele><time>2026-03-25T15:29:41.001Z</time></trkpt><trkpt lat="43.56490379985206" lon="5.377854085288195"><ele>299.25</ele><time>2026-03-25T15:29:42.001Z</time></trkpt><trkpt lat="43.56498063140826" lon="5.377677540588877"><ele>299.5</ele><time>2026-03-25T15:29:43.001Z</time></trkpt><trkpt lat="43.56505371345414" lon="5.377505030445853"><ele>299.75</ele><time>2026-03-25T15:29:44.001Z</time></trkpt><trkpt lat="43.56510708601591" lon="5.377333972516072"><ele>300.0</ele><time>2026-03-25T15:29:45.001Z</time></trkpt><trkpt lat="43.565121142751075" lon="5.377181298691318"><ele>300.2</ele><time>2026-03-25T15:29:46.001Z</time></trkpt><trkpt lat="43.56510526642251" lon="5.377055891836175"><ele>300.4</ele><time>2026-03-25T15:29:47.001Z</time></trkpt><trkpt lat="43.565097776958574" lon="5.376933656783636"><ele>300.6</ele><time>2026-03-25T15:29:48.001Z</time></trkpt><trkpt lat="43.56514050340156" lon="5.376815097064444"><ele>300.8</ele><time>2026-03-25T15:29:49.001Z</time></trkpt><trkpt lat="43.56522460697933" lon="5.376718965538332"><ele>301.0</ele><time>2026-03-25T15:29:50.001Z</time></trkpt><trkpt lat="43.56531537051794" lon="5.376629002847172"><ele>301.5</ele><time>2026-03-25T15:29:51.001Z</time></trkpt><trkpt lat="43.565394415084334" lon="5.376516104980831"><ele>302.0</ele><time>2026-03-25T15:29:52.001Z</time></trkpt><trkpt lat="43.5654728375457" lon="5.3763866965208384"><ele>302.5</ele><time>2026-03-25T15:29:53.001Z</time></trkpt><trkpt lat="43.56555265534997" lon="5.376251322914424"><ele>303.0</ele><time>2026-03-25T15:29:54.001Z</time></trkpt><trkpt lat="43.56561381027033" lon="5.376090657367767"><ele>303.25</ele><time>2026-03-25T15:29:55.001Z</time></trkpt><trkpt lat="43.56568095453668" lon="5.375927552216477"><ele>303.5</ele><time>2026-03-25T15:29:56.001Z</time></trkpt><trkpt lat="43.565759025801114" lon="5.375764460468556"><ele>303.75</ele><time>2026-03-25T15:29:57.001Z</time></trkpt><trkpt lat="43.5658359089587" lon="5.375592198366207"><ele>304.0</ele><time>2026-03-25T15:29:58.001Z</time></trkpt><trkpt lat="43.565911463031746" lon="5.375411155262742"><ele>304.0</ele><time>2026-03-25T15:29:59.001Z</time></trkpt><trkpt lat="43.56599244670047" lon="5.375229939341609"><ele>304.0</ele><time>2026-03-25T15:30:00.001Z</time></trkpt><trkpt lat="43.566076459964584" lon="5.375048127012333"><ele>304.0</ele><time>2026-03-25T15:30:01.001Z</time></trkpt><trkpt lat="43.56615995536581" lon="5.374865029545011"><ele>304.3333333333333</ele><time>2026-03-25T15:30:02.001Z</time></trkpt><trkpt lat="43.56624003108127" lon="5.374680938481525"><ele>304.6666666666667</ele><time>2026-03-25T15:30:03.001Z</time></trkpt><trkpt lat="43.566326278141396" lon="5.37449544273177"><ele>305.0</ele><time>2026-03-25T15:30:04.001Z</time></trkpt><trkpt lat="43.5664140434698" lon="5.374310929724903"><ele>305.0</ele><time>2026-03-25T15:30:05.001Z</time></trkpt><trkpt lat="43.56650028923466" lon="5.374122850663822"><ele>305.0</ele><time>2026-03-25T15:30:06.001Z</time></trkpt><trkpt lat="43.56657382030857" lon="5.373921895475264"><ele>305.0</ele><time>2026-03-25T15:30:07.001Z</time></trkpt><trkpt lat="43.56665266126887" lon="5.373721383815557"><ele>305.0</ele><time>2026-03-25T15:30:08.001Z</time></trkpt><trkpt lat="43.56674087212951" lon="5.373528645684403"><ele>305.0</ele><time>2026-03-25T15:30:09.001Z</time></trkpt><trkpt lat="43.56682481838514" lon="5.373339276800652"><ele>305.0</ele><time>2026-03-25T15:30:10.001Z</time></trkpt><trkpt lat="43.56689986151999" lon="5.373170843311728"><ele>305.25</ele><time>2026-03-25T15:30:11.001Z</time></trkpt><trkpt lat="43.56696707464356" lon="5.373003864230922"><ele>305.5</ele><time>2026-03-25T15:30:12.001Z</time></trkpt><trkpt lat="43.56703952047733" lon="5.372841898914977"><ele>305.75</ele><time>2026-03-25T15:30:13.001Z</time></trkpt><trkpt lat="43.5671113619754" lon="5.372680313603562"><ele>306.0</ele><time>2026-03-25T15:30:14.001Z</time></trkpt><trkpt lat="43.567190264622" lon="5.372524819465149"><ele>306.0</ele><time>2026-03-25T15:30:15.001Z</time></trkpt><trkpt lat="43.567262379513636" lon="5.372360981569485"><ele>306.0</ele><time>2026-03-25T15:30:16.002Z</time></trkpt><trkpt lat="43.56733642390095" lon="5.372187794048818"><ele>306.0</ele><time>2026-03-25T15:30:17.002Z</time></trkpt><trkpt lat="43.56741188761578" lon="5.372014943935895"><ele>306.0</ele><time>2026-03-25T15:30:18.002Z</time></trkpt><trkpt lat="43.56748279699686" lon="5.371836145823843"><ele>305.3333333333333</ele><time>2026-03-25T15:30:19.002Z</time></trkpt><trkpt lat="43.56755256005682" lon="5.3716514479094855"><ele>304.66666666666663</ele><time>2026-03-25T15:30:20.002Z</time></trkpt><trkpt lat="43.567619780472945" lon="5.371462545141253"><ele>304.0</ele><time>2026-03-25T15:30:21.002Z</time></trkpt><trkpt lat="43.56769203383" lon="5.371274246136751"><ele>303.3333333333333</ele><time>2026-03-25T15:30:22.002Z</time></trkpt><trkpt lat="43.56777366544862" lon="5.371091032700628"><ele>302.6666666666667</ele><time>2026-03-25T15:30:23.002Z</time></trkpt><trkpt lat="43.567859147456524" lon="5.370907125753945"><ele>302.0</ele><time>2026-03-25T15:30:24.002Z</time></trkpt><trkpt lat="43.56794196245083" lon="5.370719258004526"><ele>303.0</ele><time>2026-03-25T15:30:25.002Z</time></trkpt><trkpt lat="43.568025383649584" lon="5.370531748147998"><ele>304.0</ele><time>2026-03-25T15:30:26.002Z</time></trkpt><trkpt lat="43.56810957612188" lon="5.370340113859793"><ele>305.0</ele><time>2026-03-25T15:30:27.002Z</time></trkpt><trkpt lat="43.56819604991436" lon="5.370152218579713"><ele>305.0</ele><time>2026-03-25T15:30:28.002Z</time></trkpt><trkpt lat="43.568285942675146" lon="5.369966307777069"><ele>305.0</ele><time>2026-03-25T15:30:29.002Z</time></trkpt><trkpt lat="43.568376261933004" lon="5.369778293000083"><ele>305.0</ele><time>2026-03-25T15:30:30.002Z</time></trkpt><trkpt lat="43.56846673665372" lon="5.369587157795506"><ele>304.6666666666667</ele><time>2026-03-25T15:30:31.002Z</time></trkpt><trkpt lat="43.568546325377795" lon="5.369389733098096"><ele>304.3333333333333</ele><time>2026-03-25T15:30:32.002Z</time></trkpt><trkpt lat="43.56862498031517" lon="5.3691956222672195"><ele>304.0</ele><time>2026-03-25T15:30:33.002Z</time></trkpt><trkpt lat="43.5687094267063" lon="5.368998515517113"><ele>304.66666666666663</ele><time>2026-03-25T15:30:34.002Z</time></trkpt><trkpt lat="43.56878871831639" lon="5.368802992031159"><ele>305.3333333333333</ele><time>2026-03-25T15:30:35.002Z</time></trkpt><trkpt lat="43.56886903304666" lon="5.368603723017621"><ele>306.0</ele><time>2026-03-25T15:30:36.002Z</time></trkpt><trkpt lat="43.56895341371188" lon="5.3684079177611395"><ele>306.0</ele><time>2026-03-25T15:30:37.002Z</time></trkpt><trkpt lat="43.569040778353845" lon="5.368208971872958"><ele>306.0</ele><time>2026-03-25T15:30:38.002Z</time></trkpt><trkpt lat="43.56912590803748" lon="5.368010608964486"><ele>306.0</ele><time>2026-03-25T15:30:39.002Z</time></trkpt><trkpt lat="43.56921378831902" lon="5.367813135147242"><ele>304.0</ele><time>2026-03-25T15:30:40.002Z</time></trkpt><trkpt lat="43.56930267494285" lon="5.36761087497652"><ele>302.0</ele><time>2026-03-25T15:30:41.002Z</time></trkpt><trkpt lat="43.56939269225735" lon="5.36740899048761"><ele>300.0</ele><time>2026-03-25T15:30:42.002Z</time></trkpt><trkpt lat="43.569482319423905" lon="5.3672119830116545"><ele>302.0</ele><time>2026-03-25T15:30:43.002Z</time></trkpt><trkpt lat="43.569570051380325" lon="5.3670161827411995"><ele>304.0</ele><time>2026-03-25T15:30:44.002Z</time></trkpt><trkpt lat="43.5696609152767" lon="5.366812375153829"><ele>306.0</ele><time>2026-03-25T15:30:45.002Z</time></trkpt><trkpt lat="43.56975252582154" lon="5.366605635331779"><ele>306.0</ele><time>2026-03-25T15:30:46.002Z</time></trkpt><trkpt lat="43.56984735887614" lon="5.366399057885186"><ele>306.0</ele><time>2026-03-25T15:30:47.002Z</time></trkpt><trkpt lat="43.56994642043795" lon="5.366200209922349"><ele>306.0</ele><time>2026-03-25T15:30:48.002Z</time></trkpt><trkpt lat="43.57004544140334" lon="5.365997177026967"><ele>303.6666666666667</ele><time>2026-03-25T15:30:49.002Z</time></trkpt><trkpt lat="43.57013868559183" lon="5.3657855141885955"><ele>301.33333333333337</ele><time>2026-03-25T15:30:50.002Z</time></trkpt><trkpt lat="43.57022823990195" lon="5.365566828393678"><ele>299.0</ele><time>2026-03-25T15:30:51.002Z</time></trkpt><trkpt lat="43.570320582367984" lon="5.365366111980754"><ele>301.0</ele><time>2026-03-25T15:30:52.002Z</time></trkpt><trkpt lat="43.57041133536651" lon="5.365172226771913"><ele>303.0</ele><time>2026-03-25T15:30:53.002Z</time></trkpt><trkpt lat="43.570502458568036" lon="5.364976710985505"><ele>305.0</ele><time>2026-03-25T15:30:54.002Z</time></trkpt><trkpt lat="43.570583881288535" lon="5.364794723133495"><ele>304.25</ele><time>2026-03-25T15:30:55.002Z</time></trkpt><trkpt lat="43.57065621353007" lon="5.364630211240061"><ele>303.5</ele><time>2026-03-25T15:30:56.002Z</time></trkpt><trkpt lat="43.57073005923057" lon="5.364477675648673"><ele>302.75</ele><time>2026-03-25T15:30:57.002Z</time></trkpt><trkpt lat="43.57080006653151" lon="5.364324597601219"><ele>302.0</ele><time>2026-03-25T15:30:58.002Z</time></trkpt><trkpt lat="43.57085569169782" lon="5.364171804350102"><ele>302.0</ele><time>2026-03-25T15:30:59.002Z</time></trkpt><trkpt lat="43.57090340717133" lon="5.364026277226047"><ele>302.0</ele><time>2026-03-25T15:31:00.002Z</time></trkpt><trkpt lat="43.57094468322084" lon="5.363889516732929"><ele>302.0</ele><time>2026-03-25T15:31:01.002Z</time></trkpt><trkpt lat="43.570979177015715" lon="5.363767350375733"><ele>302.0</ele><time>2026-03-25T15:31:02.002Z</time></trkpt><trkpt lat="43.57100230165587" lon="5.363661197828022"><ele>302.0</ele><time>2026-03-25T15:31:03.002Z</time></trkpt><trkpt lat="43.57102341131984" lon="5.363569062020619"><ele>302.1666666666667</ele><time>2026-03-25T15:31:04.002Z</time></trkpt><trkpt lat="43.571049826829345" lon="5.363470712466056"><ele>302.33333333333337</ele><time>2026-03-25T15:31:05.002Z</time></trkpt><trkpt lat="43.571083595620216" lon="5.363354305828684"><ele>302.5</ele><time>2026-03-25T15:31:06.001Z</time></trkpt><trkpt lat="43.57111262120525" lon="5.363249701940114"><ele>302.6666666666667</ele><time>2026-03-25T15:31:07.001Z</time></trkpt><trkpt lat="43.57114277376911" lon="5.363155354739392"><ele>302.8333333333333</ele><time>2026-03-25T15:31:08.001Z</time></trkpt><trkpt lat="43.57117088778644" lon="5.363046253199882"><ele>303.0</ele><time>2026-03-25T15:31:09.001Z</time></trkpt><trkpt lat="43.57119691245578" lon="5.36290242868492"><ele>303.0</ele><time>2026-03-25T15:31:10.001Z</time></trkpt><trkpt lat="43.5712388567484" lon="5.362752975175266"><ele>303.0</ele><time>2026-03-25T15:31:11.001Z</time></trkpt><trkpt lat="43.57128366462739" lon="5.362591037102187"><ele>303.0</ele><time>2026-03-25T15:31:12.001Z</time></trkpt><trkpt lat="43.57131579433773" lon="5.362429064393382"><ele>303.0</ele><time>2026-03-25T15:31:13.001Z</time></trkpt><trkpt lat="43.57135050610857" lon="5.362289174030678"><ele>302.8333333333333</ele><time>2026-03-25T15:31:14.001Z</time></trkpt><trkpt lat="43.57137940604383" lon="5.362159452906027"><ele>302.6666666666667</ele><time>2026-03-25T15:31:15.001Z</time></trkpt><trkpt lat="43.57140628835307" lon="5.362036216330154"><ele>302.5</ele><time>2026-03-25T15:31:16.001Z</time></trkpt><trkpt lat="43.571435084471" lon="5.361921599545597"><ele>302.33333333333337</ele><time>2026-03-25T15:31:17.001Z</time></trkpt><trkpt lat="43.5714594767273" lon="5.361819316583691"><ele>302.1666666666667</ele><time>2026-03-25T15:31:18Z</time></trkpt><trkpt lat="43.571488820150286" lon="5.3617172331239145"><ele>302.0</ele><time>2026-03-25T15:31:19Z</time></trkpt><trkpt lat="43.571525713243645" lon="5.361584943550961"><ele>302.0</ele><time>2026-03-25T15:31:20Z</time></trkpt><trkpt lat="43.57155503767163" lon="5.361429463500434"><ele>302.0</ele><time>2026-03-25T15:31:21Z</time></trkpt><trkpt lat="43.57158295852435" lon="5.361281648305201"><ele>302.0</ele><time>2026-03-25T15:31:22Z</time></trkpt><trkpt lat="43.571609922556135" lon="5.361155126381299"><ele>302.0</ele><time>2026-03-25T15:31:23Z</time></trkpt><trkpt lat="43.57163504145703" lon="5.36102699043947"><ele>302.0</ele><time>2026-03-25T15:31:24Z</time></trkpt><trkpt lat="43.57165044008408" lon="5.360912122445452"><ele>301.5</ele><time>2026-03-25T15:31:25Z</time></trkpt><trkpt lat="43.57166830069314" lon="5.360818484091936"><ele>301.0</ele><time>2026-03-25T15:31:26Z</time></trkpt><trkpt lat="43.57168666835339" lon="5.3607045585491395"><ele>300.5</ele><time>2026-03-25T15:31:28Z</time></trkpt><trkpt lat="43.57167874022809" lon="5.360612649428977"><ele>300.0</ele><time>2026-03-25T15:31:31.001Z</time></trkpt><trkpt lat="43.57170199217169" lon="5.36051269139688"><ele>299.5</ele><time>2026-03-25T15:31:33.001Z</time></trkpt><trkpt lat="43.57168898784582" lon="5.360401538301817"><ele>299.0</ele><time>2026-03-25T15:31:34.001Z</time></trkpt><trkpt lat="43.57164949611526" lon="5.3602679906273085"><ele>298.59999999999997</ele><time>2026-03-25T15:31:35.001Z</time></trkpt><trkpt lat="43.57160492277938" lon="5.360125080046089"><ele>298.2</ele><time>2026-03-25T15:31:36.001Z</time></trkpt><trkpt lat="43.57155806266427" lon="5.359996528102622"><ele>297.79999999999995</ele><time>2026-03-25T15:31:37.001Z</time></trkpt><trkpt lat="43.57150772272651" lon="5.359858749237595"><ele>297.4</ele><time>2026-03-25T15:31:38.001Z</time></trkpt><trkpt lat="43.57145470238823" lon="5.359710604227097"><ele>297.0</ele><time>2026-03-25T15:31:39.001Z</time></trkpt><trkpt lat="43.57140277591651" lon="5.359556604715207"><ele>296.25</ele><time>2026-03-25T15:31:40.001Z</time></trkpt><trkpt lat="43.57134429813624" lon="5.3593971137034275"><ele>295.5</ele><time>2026-03-25T15:31:41.001Z</time></trkpt><trkpt lat="43.57128726060638" lon="5.359246594385936"><ele>294.75</ele><time>2026-03-25T15:31:42.001Z</time></trkpt><trkpt lat="43.5712356638963" lon="5.359101872909008"><ele>294.0</ele><time>2026-03-25T15:31:43.001Z</time></trkpt><trkpt lat="43.57119297255516" lon="5.358964906463792"><ele>292.8</ele><time>2026-03-25T15:31:44.001Z</time></trkpt><trkpt lat="43.571147411387194" lon="5.358833865648116"><ele>291.59999999999997</ele><time>2026-03-25T15:31:45.001Z</time></trkpt><trkpt lat="43.57110092887247" lon="5.358706871592149"><ele>290.4</ele><time>2026-03-25T15:31:46.001Z</time></trkpt><trkpt lat="43.571057426913654" lon="5.358589637767248"><ele>289.2</ele><time>2026-03-25T15:31:47.001Z</time></trkpt><trkpt lat="43.571005080663554" lon="5.358452474926602"><ele>288.0</ele><time>2026-03-25T15:31:48.001Z</time></trkpt><trkpt lat="43.57095252315064" lon="5.358311837393619"><ele>288.0</ele><time>2026-03-25T15:31:49.001Z</time></trkpt><trkpt lat="43.57090925856579" lon="5.358180628018581"><ele>288.0</ele><time>2026-03-25T15:31:50.001Z</time></trkpt><trkpt lat="43.57086484434866" lon="5.3580644456415945"><ele>288.0</ele><time>2026-03-25T15:31:51.001Z</time></trkpt><trkpt lat="43.570832711500216" lon="5.357971537113678"><ele>288.0</ele><time>2026-03-25T15:31:52.001Z</time></trkpt><trkpt lat="43.57076433068259" lon="5.357803999481079"><ele>288.0</ele><time>2026-03-25T15:31:54.001Z</time></trkpt><trkpt lat="43.570716675692076" lon="5.357679849391097"><ele>288.0</ele><time>2026-03-25T15:31:55.001Z</time></trkpt><trkpt lat="43.570681712387916" lon="5.357558977437619"><ele>288.0</ele><time>2026-03-25T15:31:56.001Z</time></trkpt><trkpt lat="43.57065134970361" lon="5.357461187993462"><ele>288.0</ele><time>2026-03-25T15:31:57.001Z</time></trkpt><trkpt lat="43.570610887401884" lon="5.357331027036321"><ele>288.0</ele><time>2026-03-25T15:31:58.001Z</time></trkpt><trkpt lat="43.570565818127555" lon="5.357179986991084"><ele>288.0</ele><time>2026-03-25T15:31:59.001Z</time></trkpt><trkpt lat="43.57051794906531" lon="5.3570216960296415"><ele>287.8</ele><time>2026-03-25T15:32:00.001Z</time></trkpt><trkpt lat="43.570475065309864" lon="5.356879652978531"><ele>287.6</ele><time>2026-03-25T15:32:01.001Z</time></trkpt><trkpt lat="43.5704506985261" lon="5.356735926669089"><ele>287.4</ele><time>2026-03-25T15:32:02.001Z</time></trkpt><trkpt lat="43.57044720837355" lon="5.356593789847276"><ele>287.2</ele><time>2026-03-25T15:32:03.001Z</time></trkpt><trkpt lat="43.57046431449251" lon="5.3564651143230435"><ele>287.0</ele><time>2026-03-25T15:32:04.001Z</time></trkpt><trkpt lat="43.57048163996974" lon="5.356353304718129"><ele>287.0</ele><time>2026-03-25T15:32:05.001Z</time></trkpt><trkpt lat="43.57049633211296" lon="5.3562537535216626"><ele>287.0</ele><time>2026-03-25T15:32:06.001Z</time></trkpt><trkpt lat="43.57051271748802" lon="5.356145007883576"><ele>287.0</ele><time>2026-03-25T15:32:07.001Z</time></trkpt><trkpt lat="43.57053134545998" lon="5.356028199811274"><ele>287.0</ele><time>2026-03-25T15:32:08.001Z</time></trkpt><trkpt lat="43.57054589442813" lon="5.355900934521847"><ele>287.0</ele><time>2026-03-25T15:32:09.001Z</time></trkpt><trkpt lat="43.57056795122574" lon="5.3557689998935505"><ele>287.0</ele><time>2026-03-25T15:32:10.001Z</time></trkpt><trkpt lat="43.57059136507433" lon="5.355605617483665"><ele>286.75</ele><time>2026-03-25T15:32:11.001Z</time></trkpt><trkpt lat="43.570625360987094" lon="5.355444720869806"><ele>286.5</ele><time>2026-03-25T15:32:12.001Z</time></trkpt><trkpt lat="43.570659508315245" lon="5.355276557701757"><ele>286.25</ele><time>2026-03-25T15:32:13.001Z</time></trkpt><trkpt lat="43.570688482598456" lon="5.355115140565219"><ele>286.0</ele><time>2026-03-25T15:32:14.001Z</time></trkpt><trkpt lat="43.570716564036545" lon="5.354965785591755"><ele>286.0</ele><time>2026-03-25T15:32:15.001Z</time></trkpt><trkpt lat="43.57073868140394" lon="5.354830843120548"><ele>286.0</ele><time>2026-03-25T15:32:16.001Z</time></trkpt><trkpt lat="43.57076845737455" lon="5.3547199899882605"><ele>286.0</ele><time>2026-03-25T15:32:17.001Z</time></trkpt><trkpt lat="43.57080119198507" lon="5.35463769647072"><ele>286.0</ele><time>2026-03-25T15:32:18.001Z</time></trkpt><trkpt lat="43.57087669237514" lon="5.354494123918974"><ele>286.0</ele><time>2026-03-25T15:32:20.001Z</time></trkpt><trkpt lat="43.570899525828956" lon="5.354408962942439"><ele>286.0</ele><time>2026-03-25T15:32:21.001Z</time></trkpt><trkpt lat="43.57085827086798" lon="5.354291280875639"><ele>285.8333333333333</ele><time>2026-03-25T15:32:23.001Z</time></trkpt><trkpt lat="43.5707872607128" lon="5.354283048052855"><ele>285.66666666666663</ele><time>2026-03-25T15:32:24.001Z</time></trkpt><trkpt lat="43.570714333218454" lon="5.354321385852515"><ele>285.5</ele><time>2026-03-25T15:32:25.001Z</time></trkpt><trkpt lat="43.5706546462661" lon="5.3543943834099625"><ele>285.3333333333333</ele><time>2026-03-25T15:32:26.001Z</time></trkpt><trkpt lat="43.57059088946639" lon="5.3544220768369515"><ele>285.1666666666667</ele><time>2026-03-25T15:32:27.001Z</time></trkpt><trkpt lat="43.570506821673916" lon="5.354411889268541"><ele>285.0</ele><time>2026-03-25T15:32:28.001Z</time></trkpt><trkpt lat="43.57041546028588" lon="5.354391205349529"><ele>284.6666666666667</ele><time>2026-03-25T15:32:29.001Z</time></trkpt><trkpt lat="43.57033457660228" lon="5.354376152013094"><ele>284.3333333333333</ele><time>2026-03-25T15:32:30.001Z</time></trkpt><trkpt lat="43.57026078065249" lon="5.354359545457333"><ele>284.0</ele><time>2026-03-25T15:32:31.001Z</time></trkpt><trkpt lat="43.57019244168617" lon="5.354356650027667"><ele>283.66666666666663</ele><time>2026-03-25T15:32:32.001Z</time></trkpt><trkpt lat="43.57010520689194" lon="5.35436195922865"><ele>283.3333333333333</ele><time>2026-03-25T15:32:33.001Z</time></trkpt><trkpt lat="43.570018800379756" lon="5.35436695094314"><ele>283.0</ele><time>2026-03-25T15:32:34.001Z</time></trkpt><trkpt lat="43.56993365666627" lon="5.354365531777053"><ele>283.0</ele><time>2026-03-25T15:32:35.001Z</time></trkpt><trkpt lat="43.569851046777714" lon="5.354351650890928"><ele>283.0</ele><time>2026-03-25T15:32:36.001Z</time></trkpt><trkpt lat="43.569751548886856" lon="5.354335868439407"><ele>283.0</ele><time>2026-03-25T15:32:37.001Z</time></trkpt><trkpt lat="43.569638029594394" lon="5.354321795665204"><ele>283.0</ele><time>2026-03-25T15:32:38.001Z</time></trkpt><trkpt lat="43.5695331726274" lon="5.35430672781218"><ele>283.0</ele><time>2026-03-25T15:32:39.001Z</time></trkpt><trkpt lat="43.56945145696809" lon="5.354276729314758"><ele>282.14285714285717</ele><time>2026-03-25T15:32:40.001Z</time></trkpt><trkpt lat="43.56938735786229" lon="5.3542670877876395"><ele>281.28571428571433</ele><time>2026-03-25T15:32:41.001Z</time></trkpt><trkpt lat="43.56932250419885" lon="5.3542860737663815"><ele>280.42857142857144</ele><time>2026-03-25T15:32:42.002Z</time></trkpt><trkpt lat="43.56924924543408" lon="5.354330985156577"><ele>279.57142857142856</ele><time>2026-03-25T15:32:43.002Z</time></trkpt><trkpt lat="43.56917941807794" lon="5.354383489142926"><ele>278.71428571428567</ele><time>2026-03-25T15:32:44.002Z</time></trkpt><trkpt lat="43.569116334083695" lon="5.354427788717735"><ele>277.85714285714283</ele><time>2026-03-25T15:32:45.002Z</time></trkpt><trkpt lat="43.56903804869557" lon="5.354468068941189"><ele>277.0</ele><time>2026-03-25T15:32:46.002Z</time></trkpt><trkpt lat="43.56897420913705" lon="5.35450695030636"><ele>277.0</ele><time>2026-03-25T15:32:47.002Z</time></trkpt><trkpt lat="43.56889317685107" lon="5.3545525614683065"><ele>277.0</ele><time>2026-03-25T15:32:50.002Z</time></trkpt><trkpt lat="43.56882978400891" lon="5.354592406466117"><ele>277.0</ele><time>2026-03-25T15:32:52.002Z</time></trkpt><trkpt lat="43.5687440634809" lon="5.354625463150471"><ele>277.0</ele><time>2026-03-25T15:32:54.002Z</time></trkpt><trkpt lat="43.568631005896066" lon="5.354673545891206"><ele>277.0</ele><time>2026-03-25T15:32:56.002Z</time></trkpt><trkpt lat="43.56855472045828" lon="5.354681340098669"><ele>277.0</ele><time>2026-03-25T15:32:57.002Z</time></trkpt><trkpt lat="43.568467790604274" lon="5.354720312949415"><ele>275.6</ele><time>2026-03-25T15:32:59.002Z</time></trkpt><trkpt lat="43.5684532873619" lon="5.354837343590619"><ele>274.2</ele><time>2026-03-25T15:33:02.002Z</time></trkpt><trkpt lat="43.568462596615156" lon="5.354988807483985"><ele>272.8</ele><time>2026-03-25T15:33:04.002Z</time></trkpt><trkpt lat="43.568455965069404" lon="5.355092290755719"><ele>271.4</ele><time>2026-03-25T15:33:06.002Z</time></trkpt><trkpt lat="43.56843586911929" lon="5.355292289966113"><ele>270.0</ele><time>2026-03-25T15:33:08.002Z</time></trkpt><trkpt lat="43.56842639421245" lon="5.355407957235492"><ele>270.0</ele><time>2026-03-25T15:33:09.002Z</time></trkpt><trkpt lat="43.56841976378739" lon="5.3555255107528446"><ele>270.0</ele><time>2026-03-25T15:33:10.002Z</time></trkpt><trkpt lat="43.56842002166894" lon="5.355640688942658"><ele>270.0</ele><time>2026-03-25T15:33:11.002Z</time></trkpt><trkpt lat="43.56841570216756" lon="5.35575758009322"><ele>270.0</ele><time>2026-03-25T15:33:12.001Z</time></trkpt><trkpt lat="43.56841305477552" lon="5.35588299531195"><ele>270.0</ele><time>2026-03-25T15:33:13.001Z</time></trkpt><trkpt lat="43.56840594851111" lon="5.356012385920623"><ele>270.0</ele><time>2026-03-25T15:33:14.001Z</time></trkpt><trkpt lat="43.568404910887054" lon="5.356142158598312"><ele>270.2</ele><time>2026-03-25T15:33:15.001Z</time></trkpt><trkpt lat="43.56840125775092" lon="5.35628417702244"><ele>270.4</ele><time>2026-03-25T15:33:16.001Z</time></trkpt><trkpt lat="43.56839244350715" lon="5.356426594527241"><ele>270.6</ele><time>2026-03-25T15:33:17.001Z</time></trkpt><trkpt lat="43.56838164349894" lon="5.356584654052578"><ele>270.8</ele><time>2026-03-25T15:33:18.001Z</time></trkpt><trkpt lat="43.56837543551641" lon="5.3567418967917675"><ele>271.0</ele><time>2026-03-25T15:33:19.001Z</time></trkpt><trkpt lat="43.56836685933744" lon="5.356875318449869"><ele>271.0</ele><time>2026-03-25T15:33:20.001Z</time></trkpt><trkpt lat="43.56835809765434" lon="5.357000574582269"><ele>271.0</ele><time>2026-03-25T15:33:21.001Z</time></trkpt><trkpt lat="43.56835563496406" lon="5.357114880735588"><ele>271.0</ele><time>2026-03-25T15:33:22.001Z</time></trkpt><trkpt lat="43.56835604830542" lon="5.357207827597127"><ele>271.0</ele><time>2026-03-25T15:33:26.001Z</time></trkpt><trkpt lat="43.568375944394674" lon="5.357378554051642"><ele>271.0</ele><time>2026-03-25T15:33:40.001Z</time></trkpt><trkpt lat="43.56836713679261" lon="5.35747663073504"><ele>271.0</ele><time>2026-03-25T15:33:41.001Z</time></trkpt><trkpt lat="43.56835554480872" lon="5.357590554688327"><ele>270.40000000000003</ele><time>2026-03-25T15:33:42.001Z</time></trkpt><trkpt lat="43.56834724385936" lon="5.3577107046958306"><ele>269.8</ele><time>2026-03-25T15:33:43.001Z</time></trkpt><trkpt lat="43.568343060332225" lon="5.357833687633685"><ele>269.20000000000005</ele><time>2026-03-25T15:33:44.001Z</time></trkpt><trkpt lat="43.56833959796253" lon="5.357977983011661"><ele>268.6</ele><time>2026-03-25T15:33:45.001Z</time></trkpt><trkpt lat="43.56834301993268" lon="5.358131262349768"><ele>268.0</ele><time>2026-03-25T15:33:46.001Z</time></trkpt><trkpt lat="43.56835071726993" lon="5.358275051765469"><ele>267.4</ele><time>2026-03-25T15:33:47.001Z</time></trkpt><trkpt lat="43.56835985359961" lon="5.358417348689933"><ele>266.8</ele><time>2026-03-25T15:33:48.001Z</time></trkpt><trkpt lat="43.568367140417585" lon="5.35855911514165"><ele>266.2</ele><time>2026-03-25T15:33:49.001Z</time></trkpt><trkpt lat="43.56838292225361" lon="5.358692566640137"><ele>265.6</ele><time>2026-03-25T15:33:50.001Z</time></trkpt><trkpt lat="43.56840907610835" lon="5.358820193708756"><ele>265.0</ele><time>2026-03-25T15:33:51.001Z</time></trkpt><trkpt lat="43.56842878784908" lon="5.358932624582099"><ele>263.66666666666663</ele><time>2026-03-25T15:33:52.001Z</time></trkpt><trkpt lat="43.56846402666864" lon="5.3590373762669445"><ele>262.3333333333333</ele><time>2026-03-25T15:33:53.001Z</time></trkpt><trkpt lat="43.568493979803144" lon="5.359136344630212"><ele>261.0</ele><time>2026-03-25T15:33:54.001Z</time></trkpt><trkpt lat="43.568520095825185" lon="5.359230539018548"><ele>259.6666666666667</ele><time>2026-03-25T15:33:55.001Z</time></trkpt><trkpt lat="43.56855239197031" lon="5.359337100491885"><ele>258.33333333333337</ele><time>2026-03-25T15:33:56.001Z</time></trkpt><trkpt lat="43.56858082431565" lon="5.359440251320033"><ele>257.0</ele><time>2026-03-25T15:33:57.001Z</time></trkpt><trkpt lat="43.56861066963172" lon="5.359566038548948"><ele>255.6</ele><time>2026-03-25T15:33:58.001Z</time></trkpt><trkpt lat="43.56864414596906" lon="5.359701246404026"><ele>254.2</ele><time>2026-03-25T15:33:59.001Z</time></trkpt><trkpt lat="43.56868293791816" lon="5.359846713771448"><ele>252.8</ele><time>2026-03-25T15:34:00.001Z</time></trkpt><trkpt lat="43.56871846442601" lon="5.359990025091221"><ele>251.4</ele><time>2026-03-25T15:34:01.001Z</time></trkpt><trkpt lat="43.56874878385766" lon="5.360124298951829"><ele>250.0</ele><time>2026-03-25T15:34:02.001Z</time></trkpt><trkpt lat="43.56878065508087" lon="5.36023950322386"><ele>249.99999999999997</ele><time>2026-03-25T15:34:03.001Z</time></trkpt><trkpt lat="43.56879043076892" lon="5.360342177791721"><ele>250.0</ele><time>2026-03-25T15:34:04.001Z</time></trkpt><trkpt lat="43.56876268199062" lon="5.360432249761225"><ele>250.0</ele><time>2026-03-25T15:34:05.001Z</time></trkpt><trkpt lat="43.56869596305204" lon="5.360502167710531"><ele>250.0</ele><time>2026-03-25T15:34:06.001Z</time></trkpt><trkpt lat="43.568614011897836" lon="5.360515343071349"><ele>249.99999999999997</ele><time>2026-03-25T15:34:07.001Z</time></trkpt><trkpt lat="43.56852013833319" lon="5.360465515560313"><ele>250.0</ele><time>2026-03-25T15:34:08.001Z</time></trkpt><trkpt lat="43.568428694092304" lon="5.360361495981885"><ele>250.0</ele><time>2026-03-25T15:34:09.001Z</time></trkpt><trkpt lat="43.568347202413484" lon="5.360231123618518"><ele>250.0</ele><time>2026-03-25T15:34:10.001Z</time></trkpt><trkpt lat="43.56826656538704" lon="5.3600916465145785"><ele>250.0</ele><time>2026-03-25T15:34:11.001Z</time></trkpt><trkpt lat="43.568182854186354" lon="5.359970079341591"><ele>250.0</ele><time>2026-03-25T15:34:12.001Z</time></trkpt><trkpt lat="43.568102554046455" lon="5.359858917168491"><ele>250.0</ele><time>2026-03-25T15:34:13.001Z</time></trkpt><trkpt lat="43.56802404897638" lon="5.359754251770899"><ele>250.0</ele><time>2026-03-25T15:34:14.001Z</time></trkpt><trkpt lat="43.567944367082" lon="5.359655535412717"><ele>250.0</ele><time>2026-03-25T15:34:15.001Z</time></trkpt><trkpt lat="43.567861243022705" lon="5.359562522422409"><ele>250.0</ele><time>2026-03-25T15:34:16.001Z</time></trkpt><trkpt lat="43.567768541552525" lon="5.359494757658707"><ele>250.0</ele><time>2026-03-25T15:34:17.001Z</time></trkpt><trkpt lat="43.56766689638896" lon="5.359472451374945"><ele>249.2</ele><time>2026-03-25T15:34:18.001Z</time></trkpt><trkpt lat="43.567561042045746" lon="5.359503357765867"><ele>248.4</ele><time>2026-03-25T15:34:19.001Z</time></trkpt><trkpt lat="43.56745888318711" lon="5.359563118868326"><ele>247.60000000000002</ele><time>2026-03-25T15:34:20.001Z</time></trkpt><trkpt lat="43.56736517016961" lon="5.359620263680824"><ele>246.8</ele><time>2026-03-25T15:34:21.001Z</time></trkpt><trkpt lat="43.567274572100224" lon="5.359670249514012"><ele>246.0</ele><time>2026-03-25T15:34:22.001Z</time></trkpt><trkpt lat="43.56717798263741" lon="5.359708476915854"><ele>244.4</ele><time>2026-03-25T15:34:23.001Z</time></trkpt><trkpt lat="43.56707438914923" lon="5.359747484864177"><ele>242.8</ele><time>2026-03-25T15:34:24.001Z</time></trkpt><trkpt lat="43.566958682567034" lon="5.359763156394177"><ele>241.20000000000002</ele><time>2026-03-25T15:34:25.001Z</time></trkpt><trkpt lat="43.56684735425202" lon="5.359758773102206"><ele>239.60000000000002</ele><time>2026-03-25T15:34:26.001Z</time></trkpt><trkpt lat="43.56673599069058" lon="5.359727628004795"><ele>238.0</ele><time>2026-03-25T15:34:27.001Z</time></trkpt><trkpt lat="43.56661765591495" lon="5.359702660444718"><ele>238.75</ele><time>2026-03-25T15:34:28.001Z</time></trkpt><trkpt lat="43.56649420171371" lon="5.359682501238024"><ele>239.5</ele><time>2026-03-25T15:34:29.001Z</time></trkpt><trkpt lat="43.56636622815659" lon="5.35966065068649"><ele>240.25</ele><time>2026-03-25T15:34:30.001Z</time></trkpt><trkpt lat="43.56623608622791" lon="5.359632655318851"><ele>241.0</ele><time>2026-03-25T15:34:31.001Z</time></trkpt><trkpt lat="43.56610925767773" lon="5.359597900836125"><ele>238.0</ele><time>2026-03-25T15:34:32.001Z</time></trkpt><trkpt lat="43.56598898663874" lon="5.359543321642213"><ele>235.0</ele><time>2026-03-25T15:34:33.001Z</time></trkpt><trkpt lat="43.56588161404354" lon="5.359464142266435"><ele>232.0</ele><time>2026-03-25T15:34:34.001Z</time></trkpt><trkpt lat="43.56578502447337" lon="5.359361221091159"><ele>229.0</ele><time>2026-03-25T15:34:35.001Z</time></trkpt><trkpt lat="43.565702641132816" lon="5.359248066933319"><ele>228.99999999999997</ele><time>2026-03-25T15:34:36.001Z</time></trkpt><trkpt lat="43.565633349402745" lon="5.359131109662938"><ele>229.0</ele><time>2026-03-25T15:34:37.001Z</time></trkpt><trkpt lat="43.56557962178578" lon="5.359032890148076"><ele>229.0</ele><time>2026-03-25T15:34:38.001Z</time></trkpt><trkpt lat="43.56553430752926" lon="5.35895089599914"><ele>229.0</ele><time>2026-03-25T15:34:39.001Z</time></trkpt><trkpt lat="43.56549060686851" lon="5.358870828405689"><ele>228.99999999999997</ele><time>2026-03-25T15:34:40.001Z</time></trkpt><trkpt lat="43.56545101445837" lon="5.3587926039787845"><ele>229.0</ele><time>2026-03-25T15:34:41.001Z</time></trkpt><trkpt lat="43.565404872832694" lon="5.358719325286587"><ele>227.49999999999997</ele><time>2026-03-25T15:34:42.001Z</time></trkpt><trkpt lat="43.56535540171806" lon="5.358625825274168"><ele>226.0</ele><time>2026-03-25T15:34:43.001Z</time></trkpt><trkpt lat="43.56530656013009" lon="5.3585362883453485"><ele>224.5</ele><time>2026-03-25T15:34:44.001Z</time></trkpt><trkpt lat="43.56526539380668" lon="5.358449492976361"><ele>223.0</ele><time>2026-03-25T15:34:45.001Z</time></trkpt><trkpt lat="43.56524062608529" lon="5.358353226633773"><ele>221.49999999999997</ele><time>2026-03-25T15:34:46.001Z</time></trkpt><trkpt lat="43.565216862560966" lon="5.358247417126338"><ele>220.0</ele><time>2026-03-25T15:34:47.001Z</time></trkpt><trkpt lat="43.565162584907334" lon="5.3581588215681135"><ele>219.99999999999997</ele><time>2026-03-25T15:34:48.001Z</time></trkpt><trkpt lat="43.56509653368224" lon="5.358081533826649"><ele>220.0</ele><time>2026-03-25T15:34:49.001Z</time></trkpt><trkpt lat="43.565054793240435" lon="5.358002895791519"><ele>220.0</ele><time>2026-03-25T15:34:50.001Z</time></trkpt><trkpt lat="43.56504695793038" lon="5.357888559590427"><ele>220.0</ele><time>2026-03-25T15:34:51.002Z</time></trkpt><trkpt lat="43.56506939516841" lon="5.357762432831231"><ele>219.99999999999997</ele><time>2026-03-25T15:34:52.002Z</time></trkpt><trkpt lat="43.56510564317414" lon="5.357628551426391"><ele>220.0</ele><time>2026-03-25T15:34:53.002Z</time></trkpt><trkpt lat="43.56514374926656" lon="5.357503468107878"><ele>219.49999999999997</ele><time>2026-03-25T15:34:54.002Z</time></trkpt><trkpt lat="43.56516906973658" lon="5.357389922152437"><ele>219.0</ele><time>2026-03-25T15:34:55.002Z</time></trkpt><trkpt lat="43.56517925427124" lon="5.3572763821538985"><ele>218.5</ele><time>2026-03-25T15:34:56.002Z</time></trkpt><trkpt lat="43.56516579737312" lon="5.357155201614899"><ele>218.0</ele><time>2026-03-25T15:34:57.002Z</time></trkpt><trkpt lat="43.56512661754507" lon="5.357040898278705"><ele>217.49999999999997</ele><time>2026-03-25T15:34:58.002Z</time></trkpt><trkpt lat="43.56506381102136" lon="5.356951811914033"><ele>217.0</ele><time>2026-03-25T15:34:59.002Z</time></trkpt><trkpt lat="43.56498574177882" lon="5.356883236873238"><ele>216.2</ele><time>2026-03-25T15:35:00.002Z</time></trkpt><trkpt lat="43.56489268105518" lon="5.356811891747691"><ele>215.39999999999998</ele><time>2026-03-25T15:35:01.002Z</time></trkpt><trkpt lat="43.56479090300061" lon="5.356746074469253"><ele>214.60000000000002</ele><time>2026-03-25T15:35:02.002Z</time></trkpt><trkpt lat="43.56469130103968" lon="5.356676710593982"><ele>213.8</ele><time>2026-03-25T15:35:03.002Z</time></trkpt><trkpt lat="43.564600793159926" lon="5.35660352716156"><ele>213.0</ele><time>2026-03-25T15:35:04.002Z</time></trkpt><trkpt lat="43.56453210992784" lon="5.356546525551674"><ele>211.5</ele><time>2026-03-25T15:35:05.002Z</time></trkpt><trkpt lat="43.56440591950838" lon="5.356453522973032"><ele>210.0</ele><time>2026-03-25T15:35:07.002Z</time></trkpt><trkpt lat="43.5643031096324" lon="5.356385701446124"><ele>208.5</ele><time>2026-03-25T15:35:08.002Z</time></trkpt><trkpt lat="43.564194167825356" lon="5.356307120612528"><ele>207.0</ele><time>2026-03-25T15:35:09.002Z</time></trkpt><trkpt lat="43.56407362438536" lon="5.356218624684407"><ele>207.0</ele><time>2026-03-25T15:35:10.002Z</time></trkpt><trkpt lat="43.56394340195674" lon="5.3561227479054185"><ele>207.0</ele><time>2026-03-25T15:35:11.002Z</time></trkpt><trkpt lat="43.56380492309275" lon="5.356016604419891"><ele>207.0</ele><time>2026-03-25T15:35:12.002Z</time></trkpt><trkpt lat="43.563669404316364" lon="5.35590915007783"><ele>206.0</ele><time>2026-03-25T15:35:13.002Z</time></trkpt><trkpt lat="43.563542530859415" lon="5.355808499178207"><ele>205.0</ele><time>2026-03-25T15:35:14.002Z</time></trkpt><trkpt lat="43.56342992966194" lon="5.355719844840325"><ele>204.0</ele><time>2026-03-25T15:35:15.002Z</time></trkpt><trkpt lat="43.563333653058436" lon="5.355637806383075"><ele>203.0</ele><time>2026-03-25T15:35:16.002Z</time></trkpt><trkpt lat="43.56324634356435" lon="5.355554082315504"><ele>202.66666666666669</ele><time>2026-03-25T15:35:17.002Z</time></trkpt><trkpt lat="43.56318358999585" lon="5.355465659540477"><ele>202.33333333333334</ele><time>2026-03-25T15:35:18Z</time></trkpt><trkpt lat="43.56313898225774" lon="5.35536190429043"><ele>202.0</ele><time>2026-03-25T15:35:19Z</time></trkpt><trkpt lat="43.56311314881976" lon="5.355244477231384"><ele>201.66666666666669</ele><time>2026-03-25T15:35:20Z</time></trkpt><trkpt lat="43.56310059857621" lon="5.355118837399962"><ele>201.33333333333334</ele><time>2026-03-25T15:35:21Z</time></trkpt><trkpt lat="43.56310430062963" lon="5.355005703333779"><ele>201.0</ele><time>2026-03-25T15:35:22Z</time></trkpt><trkpt lat="43.56310645525467" lon="5.354892699365097"><ele>201.0</ele><time>2026-03-25T15:35:23Z</time></trkpt><trkpt lat="43.56310842041343" lon="5.354755207520172"><ele>201.0</ele><time>2026-03-25T15:35:24Z</time></trkpt><trkpt lat="43.5631088263398" lon="5.354617009800903"><ele>201.0</ele><time>2026-03-25T15:35:25Z</time></trkpt><trkpt lat="43.5631076935603" lon="5.3545146732400015"><ele>201.0</ele><time>2026-03-25T15:35:26Z</time></trkpt><trkpt lat="43.563128130856065" lon="5.354424828822506"><ele>201.0</ele><time>2026-03-25T15:35:27Z</time></trkpt><trkpt lat="43.56316989179692" lon="5.35433512820755"><ele>201.0</ele><time>2026-03-25T15:35:28Z</time></trkpt><trkpt lat="43.56322011178321" lon="5.3542612293731375"><ele>200.0</ele><time>2026-03-25T15:35:29Z</time></trkpt><trkpt lat="43.56323551570208" lon="5.354111447731451"><ele>199.0</ele><time>2026-03-25T15:35:31Z</time></trkpt><trkpt lat="43.563192266566936" lon="5.354046979496017"><ele>198.0</ele><time>2026-03-25T15:35:32Z</time></trkpt><trkpt lat="43.563065075156615" lon="5.354015949928128"><ele>197.0</ele><time>2026-03-25T15:35:34Z</time></trkpt><trkpt lat="43.56299133481836" lon="5.354035977849037"><ele>196.0</ele><time>2026-03-25T15:35:35Z</time></trkpt><trkpt lat="43.562917846599056" lon="5.354044395693276"><ele>195.20000000000002</ele><time>2026-03-25T15:35:36Z</time></trkpt><trkpt lat="43.56284066392131" lon="5.354026525450256"><ele>194.4</ele><time>2026-03-25T15:35:37Z</time></trkpt><trkpt lat="43.562754552163945" lon="5.353987925489493"><ele>193.6</ele><time>2026-03-25T15:35:38Z</time></trkpt><trkpt lat="43.56265661904925" lon="5.353919930383368"><ele>192.8</ele><time>2026-03-25T15:35:39Z</time></trkpt><trkpt lat="43.562548597359644" lon="5.353836448201013"><ele>192.0</ele><time>2026-03-25T15:35:40Z</time></trkpt><trkpt lat="43.56243448744847" lon="5.353761021647661"><ele>191.75</ele><time>2026-03-25T15:35:41Z</time></trkpt><trkpt lat="43.562313068016635" lon="5.353679105207412"><ele>191.5</ele><time>2026-03-25T15:35:42Z</time></trkpt><trkpt lat="43.5621881869764" lon="5.35359168446688"><ele>191.25</ele><time>2026-03-25T15:35:43Z</time></trkpt><trkpt lat="43.56205205108819" lon="5.353500144115699"><ele>191.0</ele><time>2026-03-25T15:35:44Z</time></trkpt><trkpt lat="43.561907160903026" lon="5.353407857109344"><ele>190.33333333333331</ele><time>2026-03-25T15:35:45Z</time></trkpt><trkpt lat="43.561756106551734" lon="5.3533004520561365"><ele>189.66666666666666</ele><time>2026-03-25T15:35:46Z</time></trkpt><trkpt lat="43.56160502915714" lon="5.353185271524552"><ele>189.0</ele><time>2026-03-25T15:35:47Z</time></trkpt><trkpt lat="43.56145866245687" lon="5.353074386440428"><ele>189.5</ele><time>2026-03-25T15:35:48Z</time></trkpt><trkpt lat="43.56131565999544" lon="5.352987229652671"><ele>190.0</ele><time>2026-03-25T15:35:49Z</time></trkpt><trkpt lat="43.561173826846854" lon="5.352920334099904"><ele>190.5</ele><time>2026-03-25T15:35:50Z</time></trkpt><trkpt lat="43.56104533319179" lon="5.3528704015628845"><ele>191.0</ele><time>2026-03-25T15:35:51Z</time></trkpt><trkpt lat="43.56093685282023" lon="5.352815803669956"><ele>190.20000000000002</ele><time>2026-03-25T15:35:52Z</time></trkpt><trkpt lat="43.56085840090579" lon="5.352731548278367"><ele>189.4</ele><time>2026-03-25T15:35:53Z</time></trkpt><trkpt lat="43.56079459863077" lon="5.352627681959406"><ele>188.6</ele><time>2026-03-25T15:35:54Z</time></trkpt><trkpt lat="43.56072184433578" lon="5.352591088814166"><ele>187.8</ele><time>2026-03-25T15:35:55Z</time></trkpt><trkpt lat="43.56063953145758" lon="5.352635691035407"><ele>187.0</ele><time>2026-03-25T15:35:56Z</time></trkpt><trkpt lat="43.560544648817356" lon="5.352686076712768"><ele>187.0</ele><time>2026-03-25T15:35:57Z</time></trkpt><trkpt lat="43.56043810170422" lon="5.3526689158278975"><ele>187.0</ele><time>2026-03-25T15:35:58Z</time></trkpt><trkpt lat="43.560335879141434" lon="5.352571654122687"><ele>187.0</ele><time>2026-03-25T15:35:59Z</time></trkpt><trkpt lat="43.56025379636472" lon="5.352427269351226"><ele>187.0</ele><time>2026-03-25T15:36:00Z</time></trkpt><trkpt lat="43.560178951357145" lon="5.352259171090535"><ele>184.33333333333334</ele><time>2026-03-25T15:36:01Z</time></trkpt><trkpt lat="43.560092080620926" lon="5.352094694262721"><ele>181.66666666666666</ele><time>2026-03-25T15:36:02.001Z</time></trkpt><trkpt lat="43.559976071747926" lon="5.351950359799458"><ele>179.0</ele><time>2026-03-25T15:36:03.001Z</time></trkpt><trkpt lat="43.55983587204456" lon="5.351834571078891"><ele>179.0</ele><time>2026-03-25T15:36:04.001Z</time></trkpt><trkpt lat="43.559680251918195" lon="5.351733692128804"><ele>179.0</ele><time>2026-03-25T15:36:05.001Z</time></trkpt><trkpt lat="43.55951919242598" lon="5.351635740212024"><ele>179.0</ele><time>2026-03-25T15:36:06.001Z</time></trkpt><trkpt lat="43.55935756145304" lon="5.351524778049607"><ele>177.33333333333331</ele><time>2026-03-25T15:36:07.001Z</time></trkpt><trkpt lat="43.55919269028925" lon="5.351407057404336"><ele>175.66666666666666</ele><time>2026-03-25T15:36:08.001Z</time></trkpt><trkpt lat="43.55902250556675" lon="5.3512862249345865"><ele>174.0</ele><time>2026-03-25T15:36:09.001Z</time></trkpt><trkpt lat="43.55884495543869" lon="5.351175945745216"><ele>172.33333333333334</ele><time>2026-03-25T15:36:10.001Z</time></trkpt><trkpt lat="43.55865502317114" lon="5.351086901359342"><ele>170.66666666666669</ele><time>2026-03-25T15:36:11.001Z</time></trkpt><trkpt lat="43.55845378315248" lon="5.351023194985671"><ele>169.0</ele><time>2026-03-25T15:36:12.001Z</time></trkpt><trkpt lat="43.558248513971655" lon="5.3509709665283385"><ele>169.0</ele><time>2026-03-25T15:36:13.001Z</time></trkpt><trkpt lat="43.558040425426746" lon="5.350928159587243"><ele>169.0</ele><time>2026-03-25T15:36:14.001Z</time></trkpt><trkpt lat="43.5578279500857" lon="5.35089238326646"><ele>169.0</ele><time>2026-03-25T15:36:15.001Z</time></trkpt><trkpt lat="43.55761410045026" lon="5.350854511472042"><ele>168.66666666666669</ele><time>2026-03-25T15:36:16.001Z</time></trkpt><trkpt lat="43.55739906567849" lon="5.350814970265284"><ele>168.33333333333334</ele><time>2026-03-25T15:36:17.001Z</time></trkpt><trkpt lat="43.557182820011946" lon="5.350778760476328"><ele>168.0</ele><time>2026-03-25T15:36:18.001Z</time></trkpt><trkpt lat="43.55696756689918" lon="5.350730934792926"><ele>167.0</ele><time>2026-03-25T15:36:19.001Z</time></trkpt><trkpt lat="43.5567495997093" lon="5.35068788138933"><ele>166.0</ele><time>2026-03-25T15:36:20.001Z</time></trkpt><trkpt lat="43.55652991578919" lon="5.350645592400852"><ele>165.0</ele><time>2026-03-25T15:36:21.001Z</time></trkpt><trkpt lat="43.55631108584662" lon="5.350603203177209"><ele>164.0</ele><time>2026-03-25T15:36:22.001Z</time></trkpt><trkpt lat="43.55609228542632" lon="5.3505615967582285"><ele>163.0</ele><time>2026-03-25T15:36:23.001Z</time></trkpt><trkpt lat="43.55587179184039" lon="5.350521304314945"><ele>162.0</ele><time>2026-03-25T15:36:24.001Z</time></trkpt><trkpt lat="43.55565389970551" lon="5.350479504972941"><ele>161.66666666666666</ele><time>2026-03-25T15:36:25.001Z</time></trkpt><trkpt lat="43.55543676360085" lon="5.350435166633305"><ele>161.33333333333331</ele><time>2026-03-25T15:36:26.001Z</time></trkpt><trkpt lat="43.55522034917013" lon="5.350391931401897"><ele>161.0</ele><time>2026-03-25T15:36:27.001Z</time></trkpt><trkpt lat="43.555000718455304" lon="5.350351516596725"><ele>160.33333333333331</ele><time>2026-03-25T15:36:28.001Z</time></trkpt><trkpt lat="43.55478471593418" lon="5.350312463887092"><ele>159.66666666666666</ele><time>2026-03-25T15:36:29.001Z</time></trkpt><trkpt lat="43.55456710840003" lon="5.350267681095882"><ele>159.0</ele><time>2026-03-25T15:36:30.001Z</time></trkpt><trkpt lat="43.55434907414488" lon="5.350224907178347"><ele>159.0</ele><time>2026-03-25T15:36:31.001Z</time></trkpt><trkpt lat="43.55413154533442" lon="5.350181725713602"><ele>159.0</ele><time>2026-03-25T15:36:32.001Z</time></trkpt><trkpt lat="43.55391285656606" lon="5.3501392985360345"><ele>159.0</ele><time>2026-03-25T15:36:33.001Z</time></trkpt><trkpt lat="43.55369704175984" lon="5.35009603718943"><ele>158.66666666666666</ele><time>2026-03-25T15:36:34.001Z</time></trkpt><trkpt lat="43.553482661166726" lon="5.350050049212008"><ele>158.33333333333331</ele><time>2026-03-25T15:36:35.001Z</time></trkpt><trkpt lat="43.55326833712409" lon="5.35000705004295"><ele>158.0</ele><time>2026-03-25T15:36:36.001Z</time></trkpt><trkpt lat="43.55305135761449" lon="5.349968482034094"><ele>158.0</ele><time>2026-03-25T15:36:37.001Z</time></trkpt><trkpt lat="43.55283580684243" lon="5.349928570812134"><ele>158.0</ele><time>2026-03-25T15:36:38.001Z</time></trkpt><trkpt lat="43.55262260821892" lon="5.349884468310582"><ele>158.0</ele><time>2026-03-25T15:36:39.001Z</time></trkpt><trkpt lat="43.55240824031162" lon="5.34984208202415"><ele>158.0</ele><time>2026-03-25T15:36:40.001Z</time></trkpt><trkpt lat="43.5521907250376" lon="5.349801713674109"><ele>158.0</ele><time>2026-03-25T15:36:41.001Z</time></trkpt><trkpt lat="43.551972490688435" lon="5.3497624566763795"><ele>158.0</ele><time>2026-03-25T15:36:42.001Z</time></trkpt><trkpt lat="43.55175637146324" lon="5.349719730528485"><ele>157.66666666666666</ele><time>2026-03-25T15:36:43.001Z</time></trkpt><trkpt lat="43.551537981793" lon="5.3496752046964335"><ele>157.33333333333334</ele><time>2026-03-25T15:36:44.001Z</time></trkpt><trkpt lat="43.551323956590686" lon="5.3496292343831575"><ele>157.0</ele><time>2026-03-25T15:36:45.001Z</time></trkpt><trkpt lat="43.551108218094555" lon="5.349585607685084"><ele>156.33333333333334</ele><time>2026-03-25T15:36:46.001Z</time></trkpt><trkpt lat="43.55088656486285" lon="5.349546677676759"><ele>155.66666666666666</ele><time>2026-03-25T15:36:47.001Z</time></trkpt><trkpt lat="43.55066514857282" lon="5.349507165761929"><ele>155.0</ele><time>2026-03-25T15:36:48.001Z</time></trkpt><trkpt lat="43.5504433351928" lon="5.3494665716757686"><ele>154.0</ele><time>2026-03-25T15:36:49.001Z</time></trkpt><trkpt lat="43.5502212751254" lon="5.34942390602282"><ele>153.0</ele><time>2026-03-25T15:36:50.001Z</time></trkpt><trkpt lat="43.54999996967718" lon="5.349374925073951"><ele>152.0</ele><time>2026-03-25T15:36:51.001Z</time></trkpt><trkpt lat="43.549779392164105" lon="5.349330753450921"><ele>152.0</ele><time>2026-03-25T15:36:52.001Z</time></trkpt><trkpt lat="43.549557034374544" lon="5.349287358196283"><ele>152.0</ele><time>2026-03-25T15:36:53.001Z</time></trkpt><trkpt lat="43.54933714073157" lon="5.34924869504426"><ele>152.0</ele><time>2026-03-25T15:36:54.001Z</time></trkpt><trkpt lat="43.54911649644462" lon="5.349207587782466"><ele>151.66666666666666</ele><time>2026-03-25T15:36:55.001Z</time></trkpt><trkpt lat="43.548897404053605" lon="5.349165527037995"><ele>151.33333333333334</ele><time>2026-03-25T15:36:56.001Z</time></trkpt><trkpt lat="43.54867502975277" lon="5.349128528841986"><ele>151.0</ele><time>2026-03-25T15:36:57.001Z</time></trkpt><trkpt lat="43.54845482588626" lon="5.349083734149217"><ele>150.0</ele><time>2026-03-25T15:36:58.001Z</time></trkpt><trkpt lat="43.54823437221344" lon="5.349034345912937"><ele>149.0</ele><time>2026-03-25T15:36:59.001Z</time></trkpt><trkpt lat="43.54801386380549" lon="5.348982954212602"><ele>148.0</ele><time>2026-03-25T15:37:00.001Z</time></trkpt><trkpt lat="43.54779088839491" lon="5.348938448339234"><ele>148.0</ele><time>2026-03-25T15:37:01.001Z</time></trkpt><trkpt lat="43.54756609885228" lon="5.348898728114256"><ele>148.0</ele><time>2026-03-25T15:37:02.001Z</time></trkpt><trkpt lat="43.54734369278275" lon="5.348860390407379"><ele>147.0</ele><time>2026-03-25T15:37:03.001Z</time></trkpt><trkpt lat="43.547121878543905" lon="5.348818459326515"><ele>146.0</ele><time>2026-03-25T15:37:04.001Z</time></trkpt><trkpt lat="43.54690163835275" lon="5.348773337003496"><ele>145.0</ele><time>2026-03-25T15:37:05.001Z</time></trkpt><trkpt lat="43.546678952164896" lon="5.348728075221333"><ele>145.0</ele><time>2026-03-25T15:37:06.001Z</time></trkpt><trkpt lat="43.54645770087377" lon="5.348681069628738"><ele>145.0</ele><time>2026-03-25T15:37:07.001Z</time></trkpt><trkpt lat="43.54623287191734" lon="5.34863316852372"><ele>144.5</ele><time>2026-03-25T15:37:08.001Z</time></trkpt><trkpt lat="43.546006790531315" lon="5.348586431813924"><ele>144.0</ele><time>2026-03-25T15:37:09.001Z</time></trkpt><trkpt lat="43.54578275896992" lon="5.3485447337748235"><ele>144.0</ele><time>2026-03-25T15:37:10.001Z</time></trkpt><trkpt lat="43.545569716572096" lon="5.348506586145675"><ele>144.0</ele><time>2026-03-25T15:37:11.001Z</time></trkpt><trkpt lat="43.545374231223406" lon="5.348468729630901"><ele>144.0</ele><time>2026-03-25T15:37:12.001Z</time></trkpt><trkpt lat="43.54518945267063" lon="5.348432743907869"><ele>144.0</ele><time>2026-03-25T15:37:13.001Z</time></trkpt><trkpt lat="43.54503094804172" lon="5.34840095729125"><ele>144.0</ele><time>2026-03-25T15:37:14.001Z</time></trkpt><trkpt lat="43.544893994142015" lon="5.348370898425755"><ele>144.0</ele><time>2026-03-25T15:37:15.001Z</time></trkpt><trkpt lat="43.54478456459042" lon="5.348327199878727"><ele>144.0</ele><time>2026-03-25T15:37:16.001Z</time></trkpt><trkpt lat="43.544683424201494" lon="5.348252854365298"><ele>144.0</ele><time>2026-03-25T15:37:17.001Z</time></trkpt><trkpt lat="43.54457955474083" lon="5.348143051927878"><ele>144.0</ele><time>2026-03-25T15:37:18.001Z</time></trkpt><trkpt lat="43.54445847162206" lon="5.348053878983994"><ele>144.0</ele><time>2026-03-25T15:37:19.002Z</time></trkpt><trkpt lat="43.544336588151225" lon="5.348024269479839"><ele>144.0</ele><time>2026-03-25T15:37:20.002Z</time></trkpt><trkpt lat="43.5442106945368" lon="5.3480446422854335"><ele>143.5</ele><time>2026-03-25T15:37:21.002Z</time></trkpt><trkpt lat="43.54408612407355" lon="5.348130236501565"><ele>143.0</ele><time>2026-03-25T15:37:22.002Z</time></trkpt><trkpt lat="43.54395777968023" lon="5.3482090521675"><ele>142.5</ele><time>2026-03-25T15:37:23.002Z</time></trkpt><trkpt lat="43.5438141834167" lon="5.348235783828251"><ele>142.0</ele><time>2026-03-25T15:37:24Z</time></trkpt><trkpt lat="43.54366173391062" lon="5.348202021294201"><ele>141.33333333333334</ele><time>2026-03-25T15:37:25Z</time></trkpt><trkpt lat="43.54350558722421" lon="5.34815025811893"><ele>140.66666666666666</ele><time>2026-03-25T15:37:26Z</time></trkpt><trkpt lat="43.5433434516359" lon="5.348116043096558"><ele>140.0</ele><time>2026-03-25T15:37:27Z</time></trkpt><trkpt lat="43.54317367941282" lon="5.348109377038605"><ele>140.0</ele><time>2026-03-25T15:37:28Z</time></trkpt><trkpt lat="43.54299908183346" lon="5.348103422029935"><ele>140.0</ele><time>2026-03-25T15:37:29Z</time></trkpt><trkpt lat="43.542818167659306" lon="5.348083242997057"><ele>140.0</ele><time>2026-03-25T15:37:30Z</time></trkpt><trkpt lat="43.542634465977386" lon="5.348054770947557"><ele>139.66666666666666</ele><time>2026-03-25T15:37:31Z</time></trkpt><trkpt lat="43.54244199367835" lon="5.34803976158103"><ele>139.33333333333334</ele><time>2026-03-25T15:37:32Z</time></trkpt><trkpt lat="43.54224664929571" lon="5.348043449818392"><ele>139.0</ele><time>2026-03-25T15:37:33Z</time></trkpt><trkpt lat="43.54204886660846" lon="5.3480616207118885"><ele>138.66666666666669</ele><time>2026-03-25T15:37:34Z</time></trkpt><trkpt lat="43.54184979898467" lon="5.348088610828502"><ele>138.33333333333334</ele><time>2026-03-25T15:37:35Z</time></trkpt><trkpt lat="43.541647675798906" lon="5.348114464812187"><ele>138.0</ele><time>2026-03-25T15:37:36Z</time></trkpt><trkpt lat="43.54143995476824" lon="5.348138985102484"><ele>138.0</ele><time>2026-03-25T15:37:37Z</time></trkpt><trkpt lat="43.541230550902455" lon="5.348160706120161"><ele>138.0</ele><time>2026-03-25T15:37:38Z</time></trkpt><trkpt lat="43.54101838672703" lon="5.348182918644269"><ele>138.0</ele><time>2026-03-25T15:37:39Z</time></trkpt><trkpt lat="43.54080467001466" lon="5.348211544160644"><ele>138.0</ele><time>2026-03-25T15:37:40Z</time></trkpt><trkpt lat="43.540589915837714" lon="5.348250812266805"><ele>138.0</ele><time>2026-03-25T15:37:41Z</time></trkpt><trkpt lat="43.5403721718883" lon="5.348300407837341"><ele>138.0</ele><time>2026-03-25T15:37:42Z</time></trkpt><trkpt lat="43.540154253008765" lon="5.348350622530371"><ele>137.0</ele><time>2026-03-25T15:37:43Z</time></trkpt><trkpt lat="43.53994383450954" lon="5.348395193811848"><ele>136.0</ele><time>2026-03-25T15:37:44Z</time></trkpt><trkpt lat="43.53974417769543" lon="5.348434795757113"><ele>135.0</ele><time>2026-03-25T15:37:45Z</time></trkpt><trkpt lat="43.53955446882607" lon="5.348469172264095"><ele>134.0</ele><time>2026-03-25T15:37:46Z</time></trkpt><trkpt lat="43.53937418177902" lon="5.348495279429236"><ele>133.0</ele><time>2026-03-25T15:37:47Z</time></trkpt><trkpt lat="43.53919494103904" lon="5.34851359455292"><ele>132.0</ele><time>2026-03-25T15:37:48Z</time></trkpt><trkpt lat="43.539014601252966" lon="5.348524026584571"><ele>132.0</ele><time>2026-03-25T15:37:49Z</time></trkpt><trkpt lat="43.538836139185264" lon="5.3485266390833575"><ele>132.0</ele><time>2026-03-25T15:37:50Z</time></trkpt><trkpt lat="43.53865447076219" lon="5.34852309761282"><ele>132.0</ele><time>2026-03-25T15:37:51Z</time></trkpt><trkpt lat="43.53847114544099" lon="5.348520515844172"><ele>131.0</ele><time>2026-03-25T15:37:52Z</time></trkpt><trkpt lat="43.538289545638975" lon="5.348514564230324"><ele>130.0</ele><time>2026-03-25T15:37:53Z</time></trkpt><trkpt lat="43.53811036018994" lon="5.348505987198243"><ele>129.0</ele><time>2026-03-25T15:37:54Z</time></trkpt><trkpt lat="43.53793776552092" lon="5.348494623086533"><ele>129.33333333333334</ele><time>2026-03-25T15:37:55Z</time></trkpt><trkpt lat="43.53776529096806" lon="5.3484775805792415"><ele>129.66666666666669</ele><time>2026-03-25T15:37:56Z</time></trkpt><trkpt lat="43.53759971917342" lon="5.348465599110216"><ele>130.0</ele><time>2026-03-25T15:37:57Z</time></trkpt><trkpt lat="43.53742902131035" lon="5.348449491609363"><ele>130.0</ele><time>2026-03-25T15:37:58Z</time></trkpt><trkpt lat="43.53726085015325" lon="5.348431886112707"><ele>130.0</ele><time>2026-03-25T15:37:59Z</time></trkpt><trkpt lat="43.53708400931798" lon="5.348411658651689"><ele>130.0</ele><time>2026-03-25T15:38:00Z</time></trkpt><trkpt lat="43.536901425863455" lon="5.348394942302997"><ele>129.33333333333334</ele><time>2026-03-25T15:38:01Z</time></trkpt><trkpt lat="43.53672488837207" lon="5.348382782624299"><ele>128.66666666666666</ele><time>2026-03-25T15:38:02Z</time></trkpt><trkpt lat="43.53654808563983" lon="5.3483757661342"><ele>128.0</ele><time>2026-03-25T15:38:03Z</time></trkpt><trkpt lat="43.53636965221867" lon="5.348378102435712"><ele>128.0</ele><time>2026-03-25T15:38:04Z</time></trkpt><trkpt lat="43.536184031340014" lon="5.348386615783438"><ele>128.0</ele><time>2026-03-25T15:38:05Z</time></trkpt><trkpt lat="43.535997899253694" lon="5.348405909507737"><ele>128.0</ele><time>2026-03-25T15:38:06Z</time></trkpt><trkpt lat="43.535817657080386" lon="5.348429138569948"><ele>128.0</ele><time>2026-03-25T15:38:07Z</time></trkpt><trkpt lat="43.53563529649101" lon="5.348454929679578"><ele>128.0</ele><time>2026-03-25T15:38:08Z</time></trkpt><trkpt lat="43.53545421133095" lon="5.348486999595522"><ele>128.0</ele><time>2026-03-25T15:38:09Z</time></trkpt><trkpt lat="43.53526512850508" lon="5.3485293359955985"><ele>127.33333333333333</ele><time>2026-03-25T15:38:10Z</time></trkpt><trkpt lat="43.53507051486428" lon="5.348577933602146"><ele>126.66666666666666</ele><time>2026-03-25T15:38:11Z</time></trkpt><trkpt lat="43.53488668849599" lon="5.348628412786453"><ele>126.0</ele><time>2026-03-25T15:38:12Z</time></trkpt><trkpt lat="43.5347097701168" lon="5.348680492301717"><ele>126.0</ele><time>2026-03-25T15:38:13Z</time></trkpt><trkpt lat="43.53453441949814" lon="5.348740869928115"><ele>126.0</ele><time>2026-03-25T15:38:14Z</time></trkpt><trkpt lat="43.53435839225011" lon="5.348817815012352"><ele>126.0</ele><time>2026-03-25T15:38:15Z</time></trkpt><trkpt lat="43.53418002261914" lon="5.348892542278392"><ele>126.33333333333334</ele><time>2026-03-25T15:38:16.001Z</time></trkpt><trkpt lat="43.53400503561385" lon="5.348974510020873"><ele>126.66666666666667</ele><time>2026-03-25T15:38:17.001Z</time></trkpt><trkpt lat="43.53383084941342" lon="5.3490669792979455"><ele>127.0</ele><time>2026-03-25T15:38:18.001Z</time></trkpt><trkpt lat="43.53366025200908" lon="5.3491673979218834"><ele>127.0</ele><time>2026-03-25T15:38:19.001Z</time></trkpt><trkpt lat="43.533495458245426" lon="5.349279188450046"><ele>127.0</ele><time>2026-03-25T15:38:20.001Z</time></trkpt><trkpt lat="43.53333488521745" lon="5.349400114766199"><ele>127.0</ele><time>2026-03-25T15:38:21.001Z</time></trkpt><trkpt lat="43.533172549014026" lon="5.349513277321267"><ele>127.0</ele><time>2026-03-25T15:38:22.001Z</time></trkpt><trkpt lat="43.533007566172905" lon="5.349619406826426"><ele>127.0</ele><time>2026-03-25T15:38:23.001Z</time></trkpt><trkpt lat="43.53283904465053" lon="5.349731120005108"><ele>127.0</ele><time>2026-03-25T15:38:24.001Z</time></trkpt><trkpt lat="43.532667581348086" lon="5.349844626092023"><ele>127.33333333333334</ele><time>2026-03-25T15:38:25.001Z</time></trkpt><trkpt lat="43.53250878197368" lon="5.349955645585817"><ele>127.66666666666666</ele><time>2026-03-25T15:38:26.001Z</time></trkpt><trkpt lat="43.532355655440355" lon="5.350062308075907"><ele>128.0</ele><time>2026-03-25T15:38:27.001Z</time></trkpt><trkpt lat="43.53220268367124" lon="5.350169109701733"><ele>127.0</ele><time>2026-03-25T15:38:28.001Z</time></trkpt><trkpt lat="43.53204626818031" lon="5.350275409136121"><ele>126.0</ele><time>2026-03-25T15:38:29.001Z</time></trkpt><trkpt lat="43.53188586630115" lon="5.350374724312298"><ele>125.0</ele><time>2026-03-25T15:38:30.001Z</time></trkpt><trkpt lat="43.53172229043601" lon="5.350474618704144"><ele>126.0</ele><time>2026-03-25T15:38:31.001Z</time></trkpt><trkpt lat="43.531557736336985" lon="5.350588596088931"><ele>127.0</ele><time>2026-03-25T15:38:32.001Z</time></trkpt><trkpt lat="43.53139172919112" lon="5.350701622754779"><ele>128.0</ele><time>2026-03-25T15:38:33.001Z</time></trkpt><trkpt lat="43.53122976327852" lon="5.350813341256765"><ele>127.33333333333333</ele><time>2026-03-25T15:38:34.001Z</time></trkpt><trkpt lat="43.531074720189785" lon="5.350915470916486"><ele>126.66666666666666</ele><time>2026-03-25T15:38:35.001Z</time></trkpt><trkpt lat="43.53092381311176" lon="5.351012115791967"><ele>126.0</ele><time>2026-03-25T15:38:36.001Z</time></trkpt><trkpt lat="43.53077780477157" lon="5.351108190371928"><ele>126.0</ele><time>2026-03-25T15:38:37.001Z</time></trkpt><trkpt lat="43.530628453199476" lon="5.351196432405503"><ele>126.0</ele><time>2026-03-25T15:38:38.001Z</time></trkpt><trkpt lat="43.53046970587291" lon="5.351267399917402"><ele>126.0</ele><time>2026-03-25T15:38:39.001Z</time></trkpt><trkpt lat="43.530304545074564" lon="5.351327654399691"><ele>125.66666666666666</ele><time>2026-03-25T15:38:40.001Z</time></trkpt><trkpt lat="43.53014468227305" lon="5.35137731019802"><ele>125.33333333333333</ele><time>2026-03-25T15:38:41.001Z</time></trkpt><trkpt lat="43.52999042199119" lon="5.351420984508928"><ele>125.0</ele><time>2026-03-25T15:38:42.001Z</time></trkpt><trkpt lat="43.529844287524654" lon="5.351452364299327"><ele>125.0</ele><time>2026-03-25T15:38:43.001Z</time></trkpt><trkpt lat="43.52969712316565" lon="5.351482374069132"><ele>125.0</ele><time>2026-03-25T15:38:44.001Z</time></trkpt><trkpt lat="43.529546165696466" lon="5.351527690309454"><ele>125.0</ele><time>2026-03-25T15:38:45.001Z</time></trkpt><trkpt lat="43.52938281943272" lon="5.35156752681274"><ele>124.66666666666666</ele><time>2026-03-25T15:38:46.001Z</time></trkpt><trkpt lat="43.52921325173196" lon="5.351605190925805"><ele>124.33333333333334</ele><time>2026-03-25T15:38:47.001Z</time></trkpt><trkpt lat="43.52903837369446" lon="5.351652041898353"><ele>124.0</ele><time>2026-03-25T15:38:48.001Z</time></trkpt><trkpt lat="43.52886174664526" lon="5.351696523347522"><ele>123.66666666666667</ele><time>2026-03-25T15:38:49.001Z</time></trkpt><trkpt lat="43.52868036874493" lon="5.351739586440136"><ele>123.33333333333334</ele><time>2026-03-25T15:38:50.001Z</time></trkpt><trkpt lat="43.52850628669406" lon="5.35176887514702"><ele>123.0</ele><time>2026-03-25T15:38:51.001Z</time></trkpt><trkpt lat="43.52832838670912" lon="5.35178268413581"><ele>123.0</ele><time>2026-03-25T15:38:52.001Z</time></trkpt><trkpt lat="43.52814950802815" lon="5.351778275886172"><ele>123.0</ele><time>2026-03-25T15:38:53.001Z</time></trkpt><trkpt lat="43.52797930571935" lon="5.351768840991229"><ele>123.0</ele><time>2026-03-25T15:38:54.001Z</time></trkpt><trkpt lat="43.52780302301866" lon="5.3517617220910205"><ele>121.66666666666666</ele><time>2026-03-25T15:38:55.001Z</time></trkpt><trkpt lat="43.52762086929627" lon="5.351759122481333"><ele>120.33333333333333</ele><time>2026-03-25T15:38:56.001Z</time></trkpt><trkpt lat="43.527439609338636" lon="5.351758130948416"><ele>119.0</ele><time>2026-03-25T15:38:57.001Z</time></trkpt><trkpt lat="43.52725931173995" lon="5.351753540262216"><ele>119.0</ele><time>2026-03-25T15:38:58.001Z</time></trkpt><trkpt lat="43.52707745858159" lon="5.351744578185511"><ele>119.0</ele><time>2026-03-25T15:38:59.001Z</time></trkpt><trkpt lat="43.526897365896374" lon="5.351734563273897"><ele>119.0</ele><time>2026-03-25T15:39:00.001Z</time></trkpt><trkpt lat="43.52672120531794" lon="5.351728945368689"><ele>121.0</ele><time>2026-03-25T15:39:01.001Z</time></trkpt><trkpt lat="43.52654513782039" lon="5.351726443195227"><ele>123.0</ele><time>2026-03-25T15:39:02.001Z</time></trkpt><trkpt lat="43.52637041602766" lon="5.351721280219983"><ele>125.0</ele><time>2026-03-25T15:39:03.001Z</time></trkpt><trkpt lat="43.526193462531026" lon="5.351712492424203"><ele>125.0</ele><time>2026-03-25T15:39:04.001Z</time></trkpt><trkpt lat="43.52601310987031" lon="5.351711705658482"><ele>125.0</ele><time>2026-03-25T15:39:05.001Z</time></trkpt><trkpt lat="43.52583169585718" lon="5.351709664615608"><ele>125.0</ele><time>2026-03-25T15:39:06.001Z</time></trkpt><trkpt lat="43.52565436605156" lon="5.351705326303264"><ele>125.0</ele><time>2026-03-25T15:39:07.001Z</time></trkpt><trkpt lat="43.52548326340725" lon="5.351693913194401"><ele>125.0</ele><time>2026-03-25T15:39:08.001Z</time></trkpt><trkpt lat="43.52529879811317" lon="5.351687653024957"><ele>125.0</ele><time>2026-03-25T15:39:09.001Z</time></trkpt><trkpt lat="43.52511394386923" lon="5.351680193036131"><ele>124.0</ele><time>2026-03-25T15:39:10.001Z</time></trkpt><trkpt lat="43.52492312002239" lon="5.351676636486613"><ele>123.0</ele><time>2026-03-25T15:39:11.001Z</time></trkpt><trkpt lat="43.52474308189201" lon="5.351667655288313"><ele>122.0</ele><time>2026-03-25T15:39:12.001Z</time></trkpt><trkpt lat="43.52456496295365" lon="5.351666081343038"><ele>121.0</ele><time>2026-03-25T15:39:13.001Z</time></trkpt><trkpt lat="43.524378362241876" lon="5.3516604645993375"><ele>120.0</ele><time>2026-03-25T15:39:14.001Z</time></trkpt><trkpt lat="43.5241964427215" lon="5.35165688440521"><ele>119.0</ele><time>2026-03-25T15:39:15.001Z</time></trkpt><trkpt lat="43.52401582702071" lon="5.351660977666653"><ele>119.0</ele><time>2026-03-25T15:39:16.001Z</time></trkpt><trkpt lat="43.52384891176205" lon="5.351651760083201"><ele>119.0</ele><time>2026-03-25T15:39:17.001Z</time></trkpt><trkpt lat="43.52368433296567" lon="5.3516507088832945"><ele>119.0</ele><time>2026-03-25T15:39:18.001Z</time></trkpt><trkpt lat="43.52351355356898" lon="5.351647660702084"><ele>119.0</ele><time>2026-03-25T15:39:19.001Z</time></trkpt><trkpt lat="43.52334114645266" lon="5.351643687350177"><ele>119.0</ele><time>2026-03-25T15:39:20.001Z</time></trkpt><trkpt lat="43.52317772146131" lon="5.35164364494872"><ele>119.0</ele><time>2026-03-25T15:39:21.001Z</time></trkpt><trkpt lat="43.52302221979229" lon="5.35164115558904"><ele>118.0</ele><time>2026-03-25T15:39:22.001Z</time></trkpt><trkpt lat="43.5228701823081" lon="5.351638936960867"><ele>117.0</ele><time>2026-03-25T15:39:23.001Z</time></trkpt><trkpt lat="43.5227231923248" lon="5.351635280754751"><ele>116.0</ele><time>2026-03-25T15:39:24.001Z</time></trkpt><trkpt lat="43.52257101738277" lon="5.351632664623987"><ele>116.0</ele><time>2026-03-25T15:39:25.001Z</time></trkpt><trkpt lat="43.52242575672643" lon="5.351633217528394"><ele>116.0</ele><time>2026-03-25T15:39:26.001Z</time></trkpt><trkpt lat="43.522291848132646" lon="5.351628261447696"><ele>116.0</ele><time>2026-03-25T15:39:27.001Z</time></trkpt><trkpt lat="43.52216252539636" lon="5.351624643721224"><ele>116.0</ele><time>2026-03-25T15:39:28.001Z</time></trkpt><trkpt lat="43.522040628806856" lon="5.351621549258429"><ele>115.5</ele><time>2026-03-25T15:39:29.001Z</time></trkpt><trkpt lat="43.52192605137855" lon="5.35162260759957"><ele>115.0</ele><time>2026-03-25T15:39:30Z</time></trkpt><trkpt lat="43.521819964332295" lon="5.351620649167195"><ele>114.5</ele><time>2026-03-25T15:39:31Z</time></trkpt><trkpt lat="43.52170524523708" lon="5.351616823043794"><ele>114.0</ele><time>2026-03-25T15:39:32Z</time></trkpt><trkpt lat="43.521585669888395" lon="5.351611915598916"><ele>114.0</ele><time>2026-03-25T15:39:33Z</time></trkpt><trkpt lat="43.52147707550468" lon="5.351609619804387"><ele>114.0</ele><time>2026-03-25T15:39:34Z</time></trkpt><trkpt lat="43.52139492122455" lon="5.351608427008635"><ele>114.0</ele><time>2026-03-25T15:39:35Z</time></trkpt><trkpt lat="43.52132243616926" lon="5.351596926039341"><ele>114.0</ele><time>2026-03-25T15:39:36Z</time></trkpt><trkpt lat="43.521226795489156" lon="5.35158318303916"><ele>114.0</ele><time>2026-03-25T15:39:37Z</time></trkpt><trkpt lat="43.52112349827521" lon="5.351581070872602"><ele>114.16666666666667</ele><time>2026-03-25T15:39:38Z</time></trkpt><trkpt lat="43.521053993885275" lon="5.3515805300719155"><ele>114.33333333333334</ele><time>2026-03-25T15:39:39Z</time></trkpt><trkpt lat="43.520988463801054" lon="5.351565536962145"><ele>114.5</ele><time>2026-03-25T15:39:41Z</time></trkpt><trkpt lat="43.52090559583148" lon="5.351503197609353"><ele>114.66666666666667</ele><time>2026-03-25T15:39:43Z</time></trkpt><trkpt lat="43.52082078035553" lon="5.351380479508729"><ele>114.83333333333334</ele><time>2026-03-25T15:39:45Z</time></trkpt><trkpt lat="43.52076139746572" lon="5.35134790360196"><ele>115.0</ele><time>2026-03-25T15:39:46Z</time></trkpt><trkpt lat="43.52069271406163" lon="5.351351717735816"><ele>114.50000000000001</ele><time>2026-03-25T15:39:47Z</time></trkpt><trkpt lat="43.520633346086036" lon="5.351384049141461"><ele>114.0</ele><time>2026-03-25T15:39:48Z</time></trkpt><trkpt lat="43.52058705774753" lon="5.351448827933529"><ele>113.5</ele><time>2026-03-25T15:39:49Z</time></trkpt><trkpt lat="43.52051840512691" lon="5.3515240550437"><ele>113.0</ele><time>2026-03-25T15:39:50Z</time></trkpt><trkpt lat="43.52044027732549" lon="5.351593410286928"><ele>112.50000000000001</ele><time>2026-03-25T15:39:51Z</time></trkpt><trkpt lat="43.5203421062032" lon="5.351615466794805"><ele>112.0</ele><time>2026-03-25T15:39:52Z</time></trkpt><trkpt lat="43.520224865791185" lon="5.3516067293816745"><ele>111.75</ele><time>2026-03-25T15:39:53Z</time></trkpt><trkpt lat="43.520101229729555" lon="5.351604560573331"><ele>111.5</ele><time>2026-03-25T15:39:54Z</time></trkpt><trkpt lat="43.519968904532284" lon="5.351613435602373"><ele>111.25</ele><time>2026-03-25T15:39:55Z</time></trkpt><trkpt lat="43.51982802071119" lon="5.35161610638239"><ele>111.0</ele><time>2026-03-25T15:39:56Z</time></trkpt><trkpt lat="43.51968057945192" lon="5.351621540544444"><ele>110.66666666666666</ele><time>2026-03-25T15:39:57Z</time></trkpt><trkpt lat="43.51952739504727" lon="5.351626850136841"><ele>110.33333333333333</ele><time>2026-03-25T15:39:58Z</time></trkpt><trkpt lat="43.51936894319724" lon="5.35162957705951"><ele>110.0</ele><time>2026-03-25T15:39:59Z</time></trkpt><trkpt lat="43.51920285191162" lon="5.351627007250379"><ele>110.0</ele><time>2026-03-25T15:40:00Z</time></trkpt><trkpt lat="43.51903494795865" lon="5.351618298723146"><ele>110.0</ele><time>2026-03-25T15:40:01Z</time></trkpt><trkpt lat="43.518863347075644" lon="5.351605925507847"><ele>110.0</ele><time>2026-03-25T15:40:02Z</time></trkpt><trkpt lat="43.518689897717984" lon="5.351587191265658"><ele>110.0</ele><time>2026-03-25T15:40:03Z</time></trkpt><trkpt lat="43.51850727940272" lon="5.35156820173504"><ele>110.0</ele><time>2026-03-25T15:40:04Z</time></trkpt><trkpt lat="43.51832196259798" lon="5.351551453281852"><ele>110.0</ele><time>2026-03-25T15:40:05Z</time></trkpt><trkpt lat="43.518138312533246" lon="5.351539372672147"><ele>110.0</ele><time>2026-03-25T15:40:06Z</time></trkpt><trkpt lat="43.51794420671068" lon="5.351525842876601"><ele>110.0</ele><time>2026-03-25T15:40:07Z</time></trkpt><trkpt lat="43.51775111977166" lon="5.351504051919783"><ele>110.0</ele><time>2026-03-25T15:40:08Z</time></trkpt><trkpt lat="43.51755945299244" lon="5.351485905314116"><ele>109.66666666666666</ele><time>2026-03-25T15:40:09Z</time></trkpt><trkpt lat="43.51736242316413" lon="5.351471260351637"><ele>109.33333333333334</ele><time>2026-03-25T15:40:10Z</time></trkpt><trkpt lat="43.5171649841422" lon="5.351450033851361"><ele>109.0</ele><time>2026-03-25T15:40:11Z</time></trkpt><trkpt lat="43.5169627944147" lon="5.3514315967720245"><ele>109.0</ele><time>2026-03-25T15:40:12Z</time></trkpt><trkpt lat="43.51676188527227" lon="5.351411547219352"><ele>109.0</ele><time>2026-03-25T15:40:13Z</time></trkpt><trkpt lat="43.51655835203683" lon="5.351388268598226"><ele>109.0</ele><time>2026-03-25T15:40:14Z</time></trkpt><trkpt lat="43.51635162171922" lon="5.351356795052553"><ele>108.66666666666667</ele><time>2026-03-25T15:40:15Z</time></trkpt><trkpt lat="43.51614838579393" lon="5.351324894922335"><ele>108.33333333333334</ele><time>2026-03-25T15:40:16Z</time></trkpt><trkpt lat="43.51593788310129" lon="5.351292312895884"><ele>108.0</ele><time>2026-03-25T15:40:17Z</time></trkpt><trkpt lat="43.51573185181514" lon="5.35125780029258"><ele>108.0</ele><time>2026-03-25T15:40:18Z</time></trkpt><trkpt lat="43.51552708749492" lon="5.35122028461538"><ele>108.0</ele><time>2026-03-25T15:40:19Z</time></trkpt><trkpt lat="43.51532023196685" lon="5.3511837973012275"><ele>108.0</ele><time>2026-03-25T15:40:20Z</time></trkpt><trkpt lat="43.5151120155882" lon="5.351144273921545"><ele>108.33333333333334</ele><time>2026-03-25T15:40:21Z</time></trkpt><trkpt lat="43.514902853550765" lon="5.351096517070289"><ele>108.66666666666667</ele><time>2026-03-25T15:40:22Z</time></trkpt><trkpt lat="43.514693671111985" lon="5.351040046494327"><ele>109.0</ele><time>2026-03-25T15:40:23.001Z</time></trkpt><trkpt lat="43.51448231622876" lon="5.350970559694474"><ele>108.33333333333334</ele><time>2026-03-25T15:40:24.001Z</time></trkpt><trkpt lat="43.514275523989305" lon="5.350889783978669"><ele>107.66666666666666</ele><time>2026-03-25T15:40:25.001Z</time></trkpt><trkpt lat="43.514073216151324" lon="5.350798229130127"><ele>107.0</ele><time>2026-03-25T15:40:26.001Z</time></trkpt><trkpt lat="43.51387300987344" lon="5.3507094932287975"><ele>106.66666666666666</ele><time>2026-03-25T15:40:27.001Z</time></trkpt><trkpt lat="43.51367073325772" lon="5.350620662017623"><ele>106.33333333333334</ele><time>2026-03-25T15:40:28.001Z</time></trkpt><trkpt lat="43.51347123550933" lon="5.35053456192505"><ele>106.0</ele><time>2026-03-25T15:40:29.001Z</time></trkpt><trkpt lat="43.51327581664959" lon="5.350448148590086"><ele>105.66666666666667</ele><time>2026-03-25T15:40:30.001Z</time></trkpt><trkpt lat="43.51308297005447" lon="5.3503622743857076"><ele>105.33333333333334</ele><time>2026-03-25T15:40:31.001Z</time></trkpt><trkpt lat="43.51289253961314" lon="5.3502747052246065"><ele>105.0</ele><time>2026-03-25T15:40:32.001Z</time></trkpt><trkpt lat="43.5127020354525" lon="5.350187447858636"><ele>105.0</ele><time>2026-03-25T15:40:33.001Z</time></trkpt><trkpt lat="43.51250894304528" lon="5.350102313410159"><ele>105.0</ele><time>2026-03-25T15:40:34.001Z</time></trkpt><trkpt lat="43.51231846387111" lon="5.350028672254766"><ele>105.0</ele><time>2026-03-25T15:40:35.001Z</time></trkpt><trkpt lat="43.51211589376216" lon="5.349985326778239"><ele>103.66666666666666</ele><time>2026-03-25T15:40:36.001Z</time></trkpt><trkpt lat="43.511906186638825" lon="5.349986205019076"><ele>102.33333333333333</ele><time>2026-03-25T15:40:37.001Z</time></trkpt><trkpt lat="43.51169459965073" lon="5.350024335499564"><ele>101.0</ele><time>2026-03-25T15:40:38.001Z</time></trkpt><trkpt lat="43.51148669504678" lon="5.350068312164441"><ele>101.0</ele><time>2026-03-25T15:40:39.001Z</time></trkpt><trkpt lat="43.51127874446418" lon="5.3501083594792"><ele>101.0</ele><time>2026-03-25T15:40:40.001Z</time></trkpt><trkpt lat="43.51106621807006" lon="5.350142758195426"><ele>101.0</ele><time>2026-03-25T15:40:41.001Z</time></trkpt><trkpt lat="43.51085327113743" lon="5.350168504563978"><ele>101.0</ele><time>2026-03-25T15:40:42.001Z</time></trkpt><trkpt lat="43.51064046858282" lon="5.3501664779518086"><ele>101.0</ele><time>2026-03-25T15:40:43.001Z</time></trkpt><trkpt lat="43.510425429190946" lon="5.350139976845606"><ele>101.0</ele><time>2026-03-25T15:40:44.001Z</time></trkpt><trkpt lat="43.51021409362361" lon="5.350088545753706"><ele>100.33333333333333</ele><time>2026-03-25T15:40:45.001Z</time></trkpt><trkpt lat="43.51000274684991" lon="5.350036531579696"><ele>99.66666666666666</ele><time>2026-03-25T15:40:46.001Z</time></trkpt><trkpt lat="43.50979143010298" lon="5.349996006835737"><ele>99.0</ele><time>2026-03-25T15:40:47.001Z</time></trkpt><trkpt lat="43.50957862442185" lon="5.3499655623144315"><ele>99.0</ele><time>2026-03-25T15:40:48.001Z</time></trkpt><trkpt lat="43.50936706064211" lon="5.3499364952734085"><ele>99.0</ele><time>2026-03-25T15:40:49.001Z</time></trkpt><trkpt lat="43.509157638483735" lon="5.349906626895553"><ele>99.0</ele><time>2026-03-25T15:40:50.001Z</time></trkpt><trkpt lat="43.508949823823556" lon="5.3498777308417615"><ele>98.66666666666666</ele><time>2026-03-25T15:40:51.001Z</time></trkpt><trkpt lat="43.508742182619216" lon="5.349849846192612"><ele>98.33333333333333</ele><time>2026-03-25T15:40:52.001Z</time></trkpt><trkpt lat="43.508537244028474" lon="5.349823639766497"><ele>98.0</ele><time>2026-03-25T15:40:53.001Z</time></trkpt><trkpt lat="43.50833540803195" lon="5.3498060942690175"><ele>98.0</ele><time>2026-03-25T15:40:54.001Z</time></trkpt><trkpt lat="43.5081408106732" lon="5.349783265658724"><ele>98.0</ele><time>2026-03-25T15:40:55.001Z</time></trkpt><trkpt lat="43.50795286739589" lon="5.349764132850993"><ele>98.0</ele><time>2026-03-25T15:40:56.001Z</time></trkpt><trkpt lat="43.50776794799869" lon="5.34974500627767"><ele>98.33333333333333</ele><time>2026-03-25T15:40:57.001Z</time></trkpt><trkpt lat="43.507606361118654" lon="5.349717566885762"><ele>98.66666666666666</ele><time>2026-03-25T15:40:58.001Z</time></trkpt><trkpt lat="43.507462016103545" lon="5.349662474121884"><ele>99.0</ele><time>2026-03-25T15:40:59.001Z</time></trkpt><trkpt lat="43.50733606952446" lon="5.349548762266567"><ele>99.33333333333334</ele><time>2026-03-25T15:41:00.001Z</time></trkpt><trkpt lat="43.50722561132085" lon="5.349388203340498"><ele>99.66666666666667</ele><time>2026-03-25T15:41:01.001Z</time></trkpt><trkpt lat="43.50713254269159" lon="5.349203878386592"><ele>100.0</ele><time>2026-03-25T15:41:02.001Z</time></trkpt><trkpt lat="43.50704166973973" lon="5.34901323343761"><ele>101.0</ele><time>2026-03-25T15:41:03.001Z</time></trkpt><trkpt lat="43.50692957670626" lon="5.3488304532008195"><ele>102.0</ele><time>2026-03-25T15:41:04.001Z</time></trkpt><trkpt lat="43.506836407676886" lon="5.348644861333448"><ele>103.0</ele><time>2026-03-25T15:41:05.001Z</time></trkpt><trkpt lat="43.506761806289525" lon="5.348468942419021"><ele>103.0</ele><time>2026-03-25T15:41:06.001Z</time></trkpt><trkpt lat="43.506689574030936" lon="5.348314152592571"><ele>103.0</ele><time>2026-03-25T15:41:07.001Z</time></trkpt><trkpt lat="43.50661963500213" lon="5.348174687402762"><ele>103.0</ele><time>2026-03-25T15:41:08.001Z</time></trkpt><trkpt lat="43.50654418410765" lon="5.3480522826784656"><ele>103.0</ele><time>2026-03-25T15:41:09.001Z</time></trkpt><trkpt lat="43.50648782696069" lon="5.347925099906421"><ele>103.16666666666667</ele><time>2026-03-25T15:41:10.001Z</time></trkpt><trkpt lat="43.50643679494693" lon="5.347831842045286"><ele>103.33333333333334</ele><time>2026-03-25T15:41:11.001Z</time></trkpt><trkpt lat="43.506398661927435" lon="5.347744095567158"><ele>103.5</ele><time>2026-03-25T15:41:13.001Z</time></trkpt><trkpt lat="43.50633009585623" lon="5.347697491193411"><ele>103.66666666666666</ele><time>2026-03-25T15:43:13.001Z</time></trkpt><trkpt lat="43.5062721871558" lon="5.347649896756122"><ele>103.83333333333333</ele><time>2026-03-25T15:43:14.001Z</time></trkpt><trkpt lat="43.5062039725294" lon="5.347612886698268"><ele>104.0</ele><time>2026-03-25T15:43:15.001Z</time></trkpt><trkpt lat="43.506128719797836" lon="5.347594929789165"><ele>104.49999999999999</ele><time>2026-03-25T15:43:16.001Z</time></trkpt><trkpt lat="43.506058847930234" lon="5.347587958302483"><ele>105.0</ele><time>2026-03-25T15:43:17.001Z</time></trkpt><trkpt lat="43.505991386307585" lon="5.347594584491031"><ele>105.5</ele><time>2026-03-25T15:43:18.001Z</time></trkpt><trkpt lat="43.505929834357424" lon="5.347626641766634"><ele>106.0</ele><time>2026-03-25T15:43:19.001Z</time></trkpt><trkpt lat="43.505871831262084" lon="5.3477461568258775"><ele>106.49999999999999</ele><time>2026-03-25T15:43:21.001Z</time></trkpt><trkpt lat="43.50586815116054" lon="5.347922596001296"><ele>107.0</ele><time>2026-03-25T15:43:23.001Z</time></trkpt><trkpt lat="43.505873846114866" lon="5.348027946208885"><ele>107.0</ele><time>2026-03-25T15:43:24.001Z</time></trkpt><trkpt lat="43.505871135164625" lon="5.348127046881596"><ele>106.99999999999999</ele><time>2026-03-25T15:43:25.001Z</time></trkpt><trkpt lat="43.50579667299739" lon="5.348253024966675"><ele>106.99999999999999</ele><time>2026-03-25T15:43:27.001Z</time></trkpt><trkpt lat="43.50570855417424" lon="5.348263336043097"><ele>107.0</ele><time>2026-03-25T15:43:28.001Z</time></trkpt><trkpt lat="43.5056067778349" lon="5.3482254828772655"><ele>107.0</ele><time>2026-03-25T15:43:29.001Z</time></trkpt><trkpt lat="43.50549741853522" lon="5.34817188415074"><ele>106.5</ele><time>2026-03-25T15:43:30.001Z</time></trkpt><trkpt lat="43.505378824471876" lon="5.348143557048588"><ele>106.0</ele><time>2026-03-25T15:43:31.001Z</time></trkpt><trkpt lat="43.50524911908793" lon="5.348096357112623"><ele>105.5</ele><time>2026-03-25T15:43:32.001Z</time></trkpt><trkpt lat="43.50511653327934" lon="5.3480576901887495"><ele>105.0</ele><time>2026-03-25T15:43:33.001Z</time></trkpt><trkpt lat="43.50496450932945" lon="5.348033945064287"><ele>104.66666666666666</ele><time>2026-03-25T15:43:34.001Z</time></trkpt><trkpt lat="43.50481877768523" lon="5.347980036681108"><ele>104.33333333333333</ele><time>2026-03-25T15:43:35.001Z</time></trkpt><trkpt lat="43.504663992321824" lon="5.347936372896968"><ele>104.0</ele><time>2026-03-25T15:43:36.001Z</time></trkpt><trkpt lat="43.50450625973799" lon="5.347887220973073"><ele>103.33333333333333</ele><time>2026-03-25T15:43:37.001Z</time></trkpt><trkpt lat="43.50434794112847" lon="5.347836851266171"><ele>102.66666666666666</ele><time>2026-03-25T15:43:38.001Z</time></trkpt><trkpt lat="43.50418688666125" lon="5.347785047658724"><ele>102.0</ele><time>2026-03-25T15:43:39.001Z</time></trkpt><trkpt lat="43.504019351511594" lon="5.34773051697361"><ele>102.0</ele><time>2026-03-25T15:43:40.001Z</time></trkpt><trkpt lat="43.50385335258955" lon="5.347669536020293"><ele>102.0</ele><time>2026-03-25T15:43:41.001Z</time></trkpt><trkpt lat="43.5036906374137" lon="5.347614211400234"><ele>102.0</ele><time>2026-03-25T15:43:42Z</time></trkpt><trkpt lat="43.503544741212664" lon="5.347568961453578"><ele>101.5</ele><time>2026-03-25T15:43:43Z</time></trkpt><trkpt lat="43.50341148153841" lon="5.347534519543571"><ele>101.0</ele><time>2026-03-25T15:43:44Z</time></trkpt><trkpt lat="43.503273259692165" lon="5.347567816351321"><ele>100.5</ele><time>2026-03-25T15:43:45Z</time></trkpt><trkpt lat="43.50314688526777" lon="5.347662380842454"><ele>100.0</ele><time>2026-03-25T15:43:46Z</time></trkpt><trkpt lat="43.50303835893336" lon="5.347794389948665"><ele>100.0</ele><time>2026-03-25T15:43:47Z</time></trkpt><trkpt lat="43.502932451529524" lon="5.347935813292124"><ele>100.0</ele><time>2026-03-25T15:43:48Z</time></trkpt><trkpt lat="43.50281884612565" lon="5.3480818602593025"><ele>100.0</ele><time>2026-03-25T15:43:49Z</time></trkpt><trkpt lat="43.50270138018604" lon="5.348230547717395"><ele>100.75</ele><time>2026-03-25T15:43:50Z</time></trkpt><trkpt lat="43.5025932287409" lon="5.348367085255516"><ele>101.5</ele><time>2026-03-25T15:43:51Z</time></trkpt><trkpt lat="43.5024885500877" lon="5.348486423934828"><ele>102.25</ele><time>2026-03-25T15:43:52Z</time></trkpt><trkpt lat="43.50237397018935" lon="5.348574510855124"><ele>103.0</ele><time>2026-03-25T15:43:53Z</time></trkpt><trkpt lat="43.50224118495768" lon="5.348638095215461"><ele>103.0</ele><time>2026-03-25T15:43:54Z</time></trkpt><trkpt lat="43.50210896170601" lon="5.348699994241476"><ele>103.0</ele><time>2026-03-25T15:43:55Z</time></trkpt><trkpt lat="43.50199250032558" lon="5.348816109188717"><ele>103.0</ele><time>2026-03-25T15:43:56Z</time></trkpt><trkpt lat="43.50189224057025" lon="5.348970517950301"><ele>103.0</ele><time>2026-03-25T15:43:57Z</time></trkpt><trkpt lat="43.50176523843801" lon="5.349095195834127"><ele>102.33333333333334</ele><time>2026-03-25T15:43:58Z</time></trkpt><trkpt lat="43.50160876936493" lon="5.34917520778971"><ele>101.66666666666666</ele><time>2026-03-25T15:43:59Z</time></trkpt><trkpt lat="43.50144926265348" lon="5.349242513805373"><ele>101.0</ele><time>2026-03-25T15:44:00Z</time></trkpt><trkpt lat="43.50129142269035" lon="5.349319046092069"><ele>102.33333333333333</ele><time>2026-03-25T15:44:01Z</time></trkpt><trkpt lat="43.50113147975442" lon="5.34939386479112"><ele>103.66666666666666</ele><time>2026-03-25T15:44:02Z</time></trkpt><trkpt lat="43.500975023715476" lon="5.349468398092857"><ele>105.0</ele><time>2026-03-25T15:44:03Z</time></trkpt><trkpt lat="43.50082935279253" lon="5.349544161951369"><ele>105.0</ele><time>2026-03-25T15:44:04Z</time></trkpt><trkpt lat="43.500693580915005" lon="5.349637785388765"><ele>105.0</ele><time>2026-03-25T15:44:05Z</time></trkpt><trkpt lat="43.50057272401845" lon="5.349778561704148"><ele>105.0</ele><time>2026-03-25T15:44:06Z</time></trkpt><trkpt lat="43.50047506618497" lon="5.349967306395588"><ele>105.0</ele><time>2026-03-25T15:44:07Z</time></trkpt><trkpt lat="43.500399575355715" lon="5.35016053787439"><ele>105.0</ele><time>2026-03-25T15:44:08Z</time></trkpt><trkpt lat="43.50032417282263" lon="5.350339340361233"><ele>105.0</ele><time>2026-03-25T15:44:09Z</time></trkpt><trkpt lat="43.50025549259577" lon="5.350488964005456"><ele>105.0</ele><time>2026-03-25T15:44:10Z</time></trkpt><trkpt lat="43.50020305131625" lon="5.350596736541715"><ele>105.0</ele><time>2026-03-25T15:44:11Z</time></trkpt><trkpt lat="43.50014191172096" lon="5.350710419883279"><ele>105.0</ele><time>2026-03-25T15:44:13Z</time></trkpt><trkpt lat="43.500063268312175" lon="5.350722437297786"><ele>105.0</ele><time>2026-03-25T15:44:15Z</time></trkpt><trkpt lat="43.4999715418355" lon="5.350627834502081"><ele>105.0</ele><time>2026-03-25T15:44:17Z</time></trkpt><trkpt lat="43.499910526732414" lon="5.350552466953239"><ele>105.0</ele><time>2026-03-25T15:44:18Z</time></trkpt><trkpt lat="43.4998316765223" lon="5.350472359850487"><ele>105.0</ele><time>2026-03-25T15:44:19Z</time></trkpt><trkpt lat="43.499741870477855" lon="5.350391823904694"><ele>105.0</ele><time>2026-03-25T15:44:20Z</time></trkpt><trkpt lat="43.49966525091607" lon="5.35032167857453"><ele>105.0</ele><time>2026-03-25T15:44:21Z</time></trkpt><trkpt lat="43.49959416844015" lon="5.350245112026323"><ele>105.0</ele><time>2026-03-25T15:44:22Z</time></trkpt><trkpt lat="43.499518620224286" lon="5.350165624644474"><ele>105.0</ele><time>2026-03-25T15:44:23Z</time></trkpt><trkpt lat="43.4994346401829" lon="5.35007740582228"><ele>105.25</ele><time>2026-03-25T15:44:24Z</time></trkpt><trkpt lat="43.499340002504404" lon="5.349985326787907"><ele>105.5</ele><time>2026-03-25T15:44:25Z</time></trkpt><trkpt lat="43.49923599576007" lon="5.349901566309599"><ele>105.75</ele><time>2026-03-25T15:44:26Z</time></trkpt><trkpt lat="43.49912933369876" lon="5.34981607470568"><ele>106.0</ele><time>2026-03-25T15:44:27Z</time></trkpt><trkpt lat="43.499019637641915" lon="5.349739771907253"><ele>107.25</ele><time>2026-03-25T15:44:28Z</time></trkpt><trkpt lat="43.49889902130418" lon="5.349662468798473"><ele>108.5</ele><time>2026-03-25T15:44:29Z</time></trkpt><trkpt lat="43.49877445122595" lon="5.3495765279159"><ele>109.75</ele><time>2026-03-25T15:44:30Z</time></trkpt><trkpt lat="43.49865129703557" lon="5.349490727838471"><ele>111.0</ele><time>2026-03-25T15:44:31Z</time></trkpt><trkpt lat="43.49852169735956" lon="5.349405555117835"><ele>111.5</ele><time>2026-03-25T15:44:32Z</time></trkpt><trkpt lat="43.49839311686898" lon="5.349328581287202"><ele>112.0</ele><time>2026-03-25T15:44:33Z</time></trkpt><trkpt lat="43.498268425307515" lon="5.349270280273322"><ele>112.5</ele><time>2026-03-25T15:44:34Z</time></trkpt><trkpt lat="43.498137648611774" lon="5.34925646224532"><ele>113.0</ele><time>2026-03-25T15:44:35Z</time></trkpt><trkpt lat="43.49801034743742" lon="5.349274624871773"><ele>115.0</ele><time>2026-03-25T15:44:36Z</time></trkpt><trkpt lat="43.49788243209677" lon="5.34931937075378"><ele>117.0</ele><time>2026-03-25T15:44:37Z</time></trkpt><trkpt lat="43.497747728326715" lon="5.349370622780911"><ele>119.0</ele><time>2026-03-25T15:44:38.001Z</time></trkpt><trkpt lat="43.497606683113005" lon="5.349424268278271"><ele>121.0</ele><time>2026-03-25T15:44:39.001Z</time></trkpt><trkpt lat="43.497460499543884" lon="5.3494788138786555"><ele>121.0</ele><time>2026-03-25T15:44:40.001Z</time></trkpt><trkpt lat="43.49731659941569" lon="5.3495358118498215"><ele>121.0</ele><time>2026-03-25T15:44:41.001Z</time></trkpt><trkpt lat="43.49716814047096" lon="5.349590080628247"><ele>121.0</ele><time>2026-03-25T15:44:42.001Z</time></trkpt><trkpt lat="43.49701981089952" lon="5.349641354055963"><ele>120.66666666666667</ele><time>2026-03-25T15:44:43.001Z</time></trkpt><trkpt lat="43.49686653331016" lon="5.349686785964219"><ele>120.33333333333334</ele><time>2026-03-25T15:44:44.001Z</time></trkpt><trkpt lat="43.4967195860321" lon="5.349728180932355"><ele>120.0</ele><time>2026-03-25T15:44:45.001Z</time></trkpt><trkpt lat="43.496576049527995" lon="5.3497677792062595"><ele>120.0</ele><time>2026-03-25T15:44:46.001Z</time></trkpt><trkpt lat="43.49643517179753" lon="5.349802828699558"><ele>120.0</ele><time>2026-03-25T15:44:47.001Z</time></trkpt><trkpt lat="43.49629650326941" lon="5.349835029444832"><ele>120.0</ele><time>2026-03-25T15:44:48.001Z</time></trkpt><trkpt lat="43.49616057894696" lon="5.349865245476851"><ele>120.0</ele><time>2026-03-25T15:44:49.001Z</time></trkpt><trkpt lat="43.49603847576811" lon="5.349884316290796"><ele>120.16666666666667</ele><time>2026-03-25T15:44:50.001Z</time></trkpt><trkpt lat="43.49592757699624" lon="5.34989824349317"><ele>120.33333333333334</ele><time>2026-03-25T15:44:51.001Z</time></trkpt><trkpt lat="43.495839702676356" lon="5.349910865567703"><ele>120.5</ele><time>2026-03-25T15:44:52.001Z</time></trkpt><trkpt lat="43.49577259018962" lon="5.349925373245136"><ele>120.66666666666667</ele><time>2026-03-25T15:44:53.001Z</time></trkpt><trkpt lat="43.495691748119285" lon="5.34994507317366"><ele>120.83333333333334</ele><time>2026-03-25T15:44:55.001Z</time></trkpt><trkpt lat="43.49559799971324" lon="5.349910471305149"><ele>121.0</ele><time>2026-03-25T15:44:57.001Z</time></trkpt><trkpt lat="43.49551973990595" lon="5.349850818749261"><ele>121.0</ele><time>2026-03-25T15:44:58.001Z</time></trkpt><trkpt lat="43.49543023382993" lon="5.349798465364066"><ele>121.0</ele><time>2026-03-25T15:44:59.001Z</time></trkpt><trkpt lat="43.49532240447599" lon="5.349791732061592"><ele>121.0</ele><time>2026-03-25T15:45:00.001Z</time></trkpt><trkpt lat="43.495206368732134" lon="5.349850401615797"><ele>121.0</ele><time>2026-03-25T15:45:01.001Z</time></trkpt><trkpt lat="43.495108257108484" lon="5.349965103659273"><ele>121.0</ele><time>2026-03-25T15:45:02.001Z</time></trkpt><trkpt lat="43.495046315199794" lon="5.35010968420394"><ele>121.0</ele><time>2026-03-25T15:45:03.001Z</time></trkpt><trkpt lat="43.49502685188097" lon="5.350260420299373"><ele>121.0</ele><time>2026-03-25T15:45:04.001Z</time></trkpt><trkpt lat="43.49504436244201" lon="5.350411376886539"><ele>121.0</ele><time>2026-03-25T15:45:05.001Z</time></trkpt><trkpt lat="43.495095248016554" lon="5.350547027667918"><ele>121.0</ele><time>2026-03-25T15:45:06.001Z</time></trkpt><trkpt lat="43.495173227847225" lon="5.350651696396287"><ele>121.0</ele><time>2026-03-25T15:45:07.001Z</time></trkpt><trkpt lat="43.49526996458113" lon="5.350717987024506"><ele>121.0</ele><time>2026-03-25T15:45:08.001Z</time></trkpt><trkpt lat="43.49536415172811" lon="5.350761215168218"><ele>121.0</ele><time>2026-03-25T15:45:09.001Z</time></trkpt><trkpt lat="43.495451284958314" lon="5.3507776559128954"><ele>121.0</ele><time>2026-03-25T15:45:10.001Z</time></trkpt><trkpt lat="43.49552299685037" lon="5.350822214464445"><ele>121.0</ele><time>2026-03-25T15:45:11.001Z</time></trkpt><trkpt lat="43.495570248089884" lon="5.350902762350836"><ele>121.0</ele><time>2026-03-25T15:45:12.001Z</time></trkpt><trkpt lat="43.49561117580886" lon="5.35101264630869"><ele>121.0</ele><time>2026-03-25T15:45:13.001Z</time></trkpt><trkpt lat="43.49565327862598" lon="5.351137999533745"><ele>121.0</ele><time>2026-03-25T15:45:14.001Z</time></trkpt><trkpt lat="43.495703609992" lon="5.351283221210047"><ele>121.0</ele><time>2026-03-25T15:45:15.001Z</time></trkpt><trkpt lat="43.495754839163034" lon="5.351417978057245"><ele>120.4</ele><time>2026-03-25T15:45:16.001Z</time></trkpt><trkpt lat="43.4958089177794" lon="5.351556507517554"><ele>119.8</ele><time>2026-03-25T15:45:17.001Z</time></trkpt><trkpt lat="43.49586229733225" lon="5.351682636941331"><ele>119.20000000000002</ele><time>2026-03-25T15:45:18.001Z</time></trkpt><trkpt lat="43.495908124769414" lon="5.3517876044768515"><ele>118.60000000000001</ele><time>2026-03-25T15:45:19.001Z</time></trkpt><trkpt lat="43.49594290271059" lon="5.351868360270741"><ele>118.0</ele><time>2026-03-25T15:45:20.001Z</time></trkpt><trkpt lat="43.495994072080904" lon="5.35203553100625"><ele>118.0</ele><time>2026-03-25T15:45:22.001Z</time></trkpt><trkpt lat="43.49602197841348" lon="5.352121789331845"><ele>118.0</ele><time>2026-03-25T15:45:23.001Z</time></trkpt><trkpt lat="43.49604680972215" lon="5.352223021624971"><ele>118.0</ele><time>2026-03-25T15:45:24.001Z</time></trkpt><trkpt lat="43.49606327615667" lon="5.352333320947847"><ele>118.0</ele><time>2026-03-25T15:45:25.001Z</time></trkpt><trkpt lat="43.49607271277781" lon="5.352427221943634"><ele>118.0</ele><time>2026-03-25T15:45:26.001Z</time></trkpt><trkpt lat="43.49607518051569" lon="5.352517452183314"><ele>118.0</ele><time>2026-03-25T15:45:27.001Z</time></trkpt><trkpt lat="43.49605930012789" lon="5.3526098950360055"><ele>118.0</ele><time>2026-03-25T15:45:28.001Z</time></trkpt><trkpt lat="43.49602775248936" lon="5.35269915388432"><ele>117.33333333333334</ele><time>2026-03-25T15:45:29.001Z</time></trkpt><trkpt lat="43.49598269794867" lon="5.3527763614747"><ele>116.66666666666667</ele><time>2026-03-25T15:45:30.001Z</time></trkpt><trkpt lat="43.49592569293103" lon="5.35282914752086"><ele>116.0</ele><time>2026-03-25T15:45:31.001Z</time></trkpt><trkpt lat="43.49585317197357" lon="5.352872035519706"><ele>115.33333333333334</ele><time>2026-03-25T15:45:32.001Z</time></trkpt><trkpt lat="43.49577560373297" lon="5.352907776059743"><ele>114.66666666666667</ele><time>2026-03-25T15:45:33.001Z</time></trkpt><trkpt lat="43.495710014964004" lon="5.352965791029045"><ele>114.0</ele><time>2026-03-25T15:45:34.001Z</time></trkpt><trkpt lat="43.495654112779214" lon="5.353032424687192"><ele>114.16666666666667</ele><time>2026-03-25T15:45:35.001Z</time></trkpt><trkpt lat="43.49559843744649" lon="5.353090005255132"><ele>114.33333333333334</ele><time>2026-03-25T15:45:36.001Z</time></trkpt><trkpt lat="43.495537546629535" lon="5.353154066039932"><ele>114.5</ele><time>2026-03-25T15:45:37.001Z</time></trkpt><trkpt lat="43.495475522675434" lon="5.3532170902306175"><ele>114.66666666666667</ele><time>2026-03-25T15:45:38.001Z</time></trkpt><trkpt lat="43.495408842732516" lon="5.353283638525791"><ele>114.83333333333334</ele><time>2026-03-25T15:45:39.001Z</time></trkpt><trkpt lat="43.49534226033292" lon="5.3533472270473"><ele>115.0</ele><time>2026-03-25T15:45:40.001Z</time></trkpt><trkpt lat="43.495285172935276" lon="5.353409655507464"><ele>115.00000000000001</ele><time>2026-03-25T15:45:41.001Z</time></trkpt><trkpt lat="43.495230081586506" lon="5.3534774166617884"><ele>115.0</ele><time>2026-03-25T15:45:42.001Z</time></trkpt><trkpt lat="43.49517614257005" lon="5.353548364671457"><ele>115.0</ele><time>2026-03-25T15:45:43.001Z</time></trkpt><trkpt lat="43.49512609433033" lon="5.353615700587511"><ele>115.0</ele><time>2026-03-25T15:45:44.001Z</time></trkpt><trkpt lat="43.495071719868676" lon="5.35368493415729"><ele>115.00000000000001</ele><time>2026-03-25T15:45:45.001Z</time></trkpt><trkpt lat="43.495013601798235" lon="5.35376233253214"><ele>115.0</ele><time>2026-03-25T15:45:46.001Z</time></trkpt><trkpt lat="43.49493743545634" lon="5.353855523108821"><ele>114.5</ele><time>2026-03-25T15:45:47.001Z</time></trkpt><trkpt lat="43.49486088449782" lon="5.353965784482381"><ele>114.0</ele><time>2026-03-25T15:45:48Z</time></trkpt><trkpt lat="43.49477214360439" lon="5.354077905473846"><ele>113.5</ele><time>2026-03-25T15:45:49Z</time></trkpt><trkpt lat="43.49467233977025" lon="5.354190034943891"><ele>113.0</ele><time>2026-03-25T15:45:50Z</time></trkpt><trkpt lat="43.49457274653464" lon="5.354300731022172"><ele>113.80000000000001</ele><time>2026-03-25T15:45:51Z</time></trkpt><trkpt lat="43.494479601903286" lon="5.354401901282101"><ele>114.60000000000001</ele><time>2026-03-25T15:45:52Z</time></trkpt><trkpt lat="43.49440256145285" lon="5.354500545594593"><ele>115.39999999999999</ele><time>2026-03-25T15:45:53Z</time></trkpt><trkpt lat="43.49433440883816" lon="5.354590018940283"><ele>116.19999999999999</ele><time>2026-03-25T15:45:54Z</time></trkpt><trkpt lat="43.4942683831818" lon="5.354668061684099"><ele>117.0</ele><time>2026-03-25T15:45:55Z</time></trkpt><trkpt lat="43.49420792211481" lon="5.354735442580991"><ele>117.0</ele><time>2026-03-25T15:45:56Z</time></trkpt><trkpt lat="43.49414191224493" lon="5.354814090128273"><ele>116.99999999999999</ele><time>2026-03-25T15:45:57Z</time></trkpt><trkpt lat="43.49406669989847" lon="5.354911733155724"><ele>116.99999999999999</ele><time>2026-03-25T15:45:58Z</time></trkpt><trkpt lat="43.493978546776006" lon="5.355016831838964"><ele>117.0</ele><time>2026-03-25T15:45:59Z</time></trkpt><trkpt lat="43.49388160138825" lon="5.355132166227869"><ele>117.0</ele><time>2026-03-25T15:46:00Z</time></trkpt><trkpt lat="43.4937898760307" lon="5.35524604362168"><ele>116.6</ele><time>2026-03-25T15:46:01Z</time></trkpt><trkpt lat="43.49370792878699" lon="5.355347956919765"><ele>116.19999999999999</ele><time>2026-03-25T15:46:02Z</time></trkpt><trkpt lat="43.49362537342827" lon="5.355451984649732"><ele>115.8</ele><time>2026-03-25T15:46:03Z</time></trkpt><trkpt lat="43.49354594765841" lon="5.355552474175527"><ele>115.4</ele><time>2026-03-25T15:46:04Z</time></trkpt><trkpt lat="43.493470347501486" lon="5.355649441514649"><ele>115.0</ele><time>2026-03-25T15:46:05Z</time></trkpt><trkpt lat="43.49339208935912" lon="5.355735836112634"><ele>114.66666666666667</ele><time>2026-03-25T15:46:06Z</time></trkpt><trkpt lat="43.49331417805541" lon="5.355800846621482"><ele>114.33333333333334</ele><time>2026-03-25T15:46:07Z</time></trkpt><trkpt lat="43.49323693675855" lon="5.35584594719782"><ele>114.0</ele><time>2026-03-25T15:46:08Z</time></trkpt><trkpt lat="43.493155837689706" lon="5.355857801070779"><ele>113.66666666666666</ele><time>2026-03-25T15:46:09Z</time></trkpt><trkpt lat="43.493086767165025" lon="5.355853072767099"><ele>113.33333333333333</ele><time>2026-03-25T15:46:10Z</time></trkpt><trkpt lat="43.49301782853717" lon="5.355833122640879"><ele>113.0</ele><time>2026-03-25T15:46:11Z</time></trkpt><trkpt lat="43.49293547953139" lon="5.355794138383059"><ele>112.5</ele><time>2026-03-25T15:46:12Z</time></trkpt><trkpt lat="43.492843322501244" lon="5.355727552130897"><ele>112.0</ele><time>2026-03-25T15:46:13Z</time></trkpt><trkpt lat="43.49275727986699" lon="5.355624998105209"><ele>111.5</ele><time>2026-03-25T15:46:14Z</time></trkpt><trkpt lat="43.49266306200501" lon="5.355516777059845"><ele>111.0</ele><time>2026-03-25T15:46:15Z</time></trkpt><trkpt lat="43.49255716213044" lon="5.355416188166124"><ele>111.0</ele><time>2026-03-25T15:46:16Z</time></trkpt><trkpt lat="43.49243775645437" lon="5.355325745009369"><ele>111.0</ele><time>2026-03-25T15:46:17Z</time></trkpt><trkpt lat="43.4923181008617" lon="5.355253932152711"><ele>111.0</ele><time>2026-03-25T15:46:18Z</time></trkpt><trkpt lat="43.492212272144684" lon="5.355189544595923"><ele>111.0</ele><time>2026-03-25T15:46:19Z</time></trkpt><trkpt lat="43.49212349362293" lon="5.3551307549795135"><ele>111.0</ele><time>2026-03-25T15:46:20Z</time></trkpt><trkpt lat="43.4920543597481" lon="5.35506743042176"><ele>111.0</ele><time>2026-03-25T15:46:21Z</time></trkpt><trkpt lat="43.49200835271538" lon="5.35500606239357"><ele>111.0</ele><time>2026-03-25T15:46:22Z</time></trkpt><trkpt lat="43.49196557057691" lon="5.354928376965211"><ele>111.0</ele><time>2026-03-25T15:46:24Z</time></trkpt><trkpt lat="43.491889982577305" lon="5.354767273494175"><ele>111.0</ele><time>2026-03-25T15:46:26Z</time></trkpt><trkpt lat="43.491867895443384" lon="5.354679440957524"><ele>111.0</ele><time>2026-03-25T15:46:27Z</time></trkpt><trkpt lat="43.49187205665692" lon="5.354522261493352"><ele>111.0</ele><time>2026-03-25T15:46:29Z</time></trkpt><trkpt lat="43.491879823652" lon="5.35435479255486"><ele>111.0</ele><time>2026-03-25T15:46:31Z</time></trkpt><trkpt lat="43.491898955765755" lon="5.35419421986215"><ele>111.0</ele><time>2026-03-25T15:46:33Z</time></trkpt><trkpt lat="43.49190751318106" lon="5.3540122784621484"><ele>111.0</ele><time>2026-03-25T15:46:35Z</time></trkpt><trkpt lat="43.49191895776015" lon="5.353881735113212"><ele>111.5</ele><time>2026-03-25T15:46:36Z</time></trkpt><trkpt lat="43.49192937941253" lon="5.353753487230296"><ele>112.0</ele><time>2026-03-25T15:46:37Z</time></trkpt><trkpt lat="43.49193128721965" lon="5.353645168606706"><ele>112.5</ele><time>2026-03-25T15:46:38Z</time></trkpt><trkpt lat="43.491941368386264" lon="5.353550411652469"><ele>113.0</ele><time>2026-03-25T15:46:39Z</time></trkpt><trkpt lat="43.49196402919325" lon="5.353464344178825"><ele>113.5</ele><time>2026-03-25T15:46:40Z</time></trkpt><trkpt lat="43.49199599773433" lon="5.353367396626138"><ele>114.0</ele><time>2026-03-25T15:46:41Z</time></trkpt><trkpt lat="43.49200166168892" lon="5.353240757792755"><ele>114.0</ele><time>2026-03-25T15:46:42Z</time></trkpt><trkpt lat="43.491980864335765" lon="5.35309176404985"><ele>114.0</ele><time>2026-03-25T15:46:43Z</time></trkpt><trkpt lat="43.491983208508316" lon="5.352939460684616"><ele>114.0</ele><time>2026-03-25T15:46:44Z</time></trkpt><trkpt lat="43.491995907964416" lon="5.352774467937392"><ele>114.0</ele><time>2026-03-25T15:46:45Z</time></trkpt><trkpt lat="43.492018856623154" lon="5.35260677605083"><ele>114.25</ele><time>2026-03-25T15:46:46Z</time></trkpt><trkpt lat="43.4920297439227" lon="5.352430442917797"><ele>114.5</ele><time>2026-03-25T15:46:47Z</time></trkpt><trkpt lat="43.4920342067092" lon="5.352247457475905"><ele>114.75</ele><time>2026-03-25T15:46:48Z</time></trkpt><trkpt lat="43.49203905374807" lon="5.352058995109141"><ele>115.0</ele><time>2026-03-25T15:46:49.001Z</time></trkpt><trkpt lat="43.49204647870306" lon="5.351864595629242"><ele>115.0</ele><time>2026-03-25T15:46:50.001Z</time></trkpt><trkpt lat="43.49206254103683" lon="5.351665018759012"><ele>115.0</ele><time>2026-03-25T15:46:51.001Z</time></trkpt><trkpt lat="43.492080326795175" lon="5.351479044135471"><ele>115.0</ele><time>2026-03-25T15:46:52.001Z</time></trkpt><trkpt lat="43.49209401532701" lon="5.351333929072657"><ele>115.0</ele><time>2026-03-25T15:46:53.001Z</time></trkpt><trkpt lat="43.49211606204703" lon="5.351228162012335"><ele>115.5</ele><time>2026-03-25T15:46:54.001Z</time></trkpt><trkpt lat="43.49214549416191" lon="5.351104091420326"><ele>116.0</ele><time>2026-03-25T15:46:55.001Z</time></trkpt><trkpt lat="43.49215165641574" lon="5.35095560088406"><ele>116.5</ele><time>2026-03-25T15:46:56.001Z</time></trkpt><trkpt lat="43.49212471406268" lon="5.350786913419079"><ele>117.0</ele><time>2026-03-25T15:46:57.001Z</time></trkpt><trkpt lat="43.49210485006809" lon="5.350613034271803"><ele>117.5</ele><time>2026-03-25T15:46:58.001Z</time></trkpt><trkpt lat="43.492098675662625" lon="5.350437993470489"><ele>118.0</ele><time>2026-03-25T15:46:59.001Z</time></trkpt><trkpt lat="43.49210770193436" lon="5.3502379592135245"><ele>118.5</ele><time>2026-03-25T15:47:00.001Z</time></trkpt><trkpt lat="43.49212143858191" lon="5.350062827522158"><ele>119.0</ele><time>2026-03-25T15:47:01.001Z</time></trkpt><trkpt lat="43.492122684310004" lon="5.349901370272938"><ele>119.0</ele><time>2026-03-25T15:47:02.001Z</time></trkpt><trkpt lat="43.49209723020527" lon="5.349751089757971"><ele>119.0</ele><time>2026-03-25T15:47:03.001Z</time></trkpt><trkpt lat="43.49203629301438" lon="5.349625766805402"><ele>119.0</ele><time>2026-03-25T15:47:04.001Z</time></trkpt><trkpt lat="43.49194425139314" lon="5.34955436948832"><ele>119.0</ele><time>2026-03-25T15:47:05.001Z</time></trkpt><trkpt lat="43.49183907056243" lon="5.349550406726869"><ele>119.0</ele><time>2026-03-25T15:47:06.001Z</time></trkpt><trkpt lat="43.49173593215338" lon="5.349595803760609"><ele>119.5</ele><time>2026-03-25T15:47:07.001Z</time></trkpt><trkpt lat="43.491642357076735" lon="5.349694286177543"><ele>120.0</ele><time>2026-03-25T15:47:08.001Z</time></trkpt><trkpt lat="43.49157523428893" lon="5.349837535673694"><ele>120.5</ele><time>2026-03-25T15:47:09.001Z</time></trkpt><trkpt lat="43.491525352773614" lon="5.349995920733509"><ele>121.0</ele><time>2026-03-25T15:47:10.001Z</time></trkpt><trkpt lat="43.4914633917426" lon="5.3501444471488915"><ele>121.0</ele><time>2026-03-25T15:47:11.001Z</time></trkpt><trkpt lat="43.49138417221004" lon="5.350250532848463"><ele>121.0</ele><time>2026-03-25T15:47:12.001Z</time></trkpt><trkpt lat="43.49128827744444" lon="5.350289095260621"><ele>121.0</ele><time>2026-03-25T15:47:13.001Z</time></trkpt><trkpt lat="43.49119469548188" lon="5.350252078214308"><ele>121.0</ele><time>2026-03-25T15:47:14.001Z</time></trkpt><trkpt lat="43.49112358619225" lon="5.3501694117304375"><ele>121.0</ele><time>2026-03-25T15:47:15.001Z</time></trkpt><trkpt lat="43.49109445299594" lon="5.350042317421538"><ele>122.0</ele><time>2026-03-25T15:47:16.001Z</time></trkpt><trkpt lat="43.49112234308053" lon="5.34990881095384"><ele>123.0</ele><time>2026-03-25T15:47:17.001Z</time></trkpt><trkpt lat="43.491181685768815" lon="5.349801391152393"><ele>124.0</ele><time>2026-03-25T15:47:18.001Z</time></trkpt><trkpt lat="43.49124721679593" lon="5.349707999316202"><ele>125.0</ele><time>2026-03-25T15:47:19.001Z</time></trkpt><trkpt lat="43.49130728371022" lon="5.3496088964348765"><ele>126.0</ele><time>2026-03-25T15:47:20.001Z</time></trkpt><trkpt lat="43.49136615376799" lon="5.3495019031386954"><ele>126.4</ele><time>2026-03-25T15:47:21.001Z</time></trkpt><trkpt lat="43.491423892687074" lon="5.349387990797557"><ele>126.8</ele><time>2026-03-25T15:47:22.001Z</time></trkpt><trkpt lat="43.49147190402833" lon="5.349263326304909"><ele>127.20000000000002</ele><time>2026-03-25T15:47:23.001Z</time></trkpt><trkpt lat="43.491525594517455" lon="5.349132537813152"><ele>127.60000000000001</ele><time>2026-03-25T15:47:24.001Z</time></trkpt><trkpt lat="43.491573465267976" lon="5.348991960563539"><ele>128.0</ele><time>2026-03-25T15:47:25.001Z</time></trkpt><trkpt lat="43.49160640070739" lon="5.34883499223512"><ele>129.0</ele><time>2026-03-25T15:47:26.001Z</time></trkpt><trkpt lat="43.49161226841578" lon="5.348670326449594"><ele>130.0</ele><time>2026-03-25T15:47:27.001Z</time></trkpt><trkpt lat="43.49158455596089" lon="5.348507936581034"><ele>131.0</ele><time>2026-03-25T15:47:28.001Z</time></trkpt><trkpt lat="43.49154351142031" lon="5.348349678464766"><ele>132.0</ele><time>2026-03-25T15:47:29.001Z</time></trkpt><trkpt lat="43.491480840354065" lon="5.348203389381956"><ele>132.0</ele><time>2026-03-25T15:47:30.001Z</time></trkpt><trkpt lat="43.49139106289814" lon="5.348076349621094"><ele>132.0</ele><time>2026-03-25T15:47:31.001Z</time></trkpt><trkpt lat="43.4912760938041" lon="5.347976862665937"><ele>132.0</ele><time>2026-03-25T15:47:32.001Z</time></trkpt><trkpt lat="43.49115476943358" lon="5.347886948222421"><ele>132.0</ele><time>2026-03-25T15:47:33.001Z</time></trkpt><trkpt lat="43.491027601427916" lon="5.347813059409835"><ele>134.0</ele><time>2026-03-25T15:47:34.001Z</time></trkpt><trkpt lat="43.490888952881875" lon="5.347765267367167"><ele>136.0</ele><time>2026-03-25T15:47:35.001Z</time></trkpt><trkpt lat="43.49074279341368" lon="5.347735611649495"><ele>138.0</ele><time>2026-03-25T15:47:36.001Z</time></trkpt><trkpt lat="43.490598058382105" lon="5.347701970115703"><ele>140.0</ele><time>2026-03-25T15:47:37.001Z</time></trkpt><trkpt lat="43.49045073202123" lon="5.34766109754951"><ele>141.66666666666666</ele><time>2026-03-25T15:47:38.001Z</time></trkpt><trkpt lat="43.490302527436874" lon="5.347632985608036"><ele>143.33333333333334</ele><time>2026-03-25T15:47:39.001Z</time></trkpt><trkpt lat="43.49015179632447" lon="5.3476203085078495"><ele>145.0</ele><time>2026-03-25T15:47:40.001Z</time></trkpt><trkpt lat="43.49000012588929" lon="5.347614463457575"><ele>145.0</ele><time>2026-03-25T15:47:41.001Z</time></trkpt><trkpt lat="43.489846081117264" lon="5.3476119476590265"><ele>145.0</ele><time>2026-03-25T15:47:42.001Z</time></trkpt><trkpt lat="43.48969121867285" lon="5.34761780207712"><ele>145.0</ele><time>2026-03-25T15:47:43.001Z</time></trkpt><trkpt lat="43.48953442024908" lon="5.3476320912978474"><ele>146.0</ele><time>2026-03-25T15:47:44.001Z</time></trkpt><trkpt lat="43.489376376425504" lon="5.34765172099193"><ele>147.0</ele><time>2026-03-25T15:47:45.001Z</time></trkpt><trkpt lat="43.4892158953625" lon="5.3476664657111055"><ele>148.0</ele><time>2026-03-25T15:47:46.001Z</time></trkpt><trkpt lat="43.48905444649273" lon="5.347679096374357"><ele>148.0</ele><time>2026-03-25T15:47:47.001Z</time></trkpt><trkpt lat="43.48889669404196" lon="5.347690868259358"><ele>148.0</ele><time>2026-03-25T15:47:48.001Z</time></trkpt><trkpt lat="43.488746579188536" lon="5.347703949621157"><ele>148.0</ele><time>2026-03-25T15:47:49.001Z</time></trkpt><trkpt lat="43.48860824043728" lon="5.3477165849021535"><ele>148.0</ele><time>2026-03-25T15:47:50.001Z</time></trkpt><trkpt lat="43.48847916424218" lon="5.347724755033508"><ele>149.0</ele><time>2026-03-25T15:47:51.001Z</time></trkpt><trkpt lat="43.48836304667537" lon="5.3477312238023655"><ele>150.0</ele><time>2026-03-25T15:47:52.001Z</time></trkpt><trkpt lat="43.48825827023198" lon="5.347711944299702"><ele>151.0</ele><time>2026-03-25T15:47:53.001Z</time></trkpt><trkpt lat="43.48816109337285" lon="5.347666181580304"><ele>152.0</ele><time>2026-03-25T15:47:53.999Z</time></trkpt><trkpt lat="43.48805857446354" lon="5.347596304257143"><ele>153.0</ele><time>2026-03-25T15:47:54.999Z</time></trkpt><trkpt lat="43.48797426093553" lon="5.347467202772217"><ele>154.25</ele><time>2026-03-25T15:47:55.999Z</time></trkpt><trkpt lat="43.487872548709056" lon="5.3473595616917216"><ele>155.5</ele><time>2026-03-25T15:47:56.999Z</time></trkpt><trkpt lat="43.48775440851563" lon="5.347282418030495"><ele>156.75</ele><time>2026-03-25T15:47:57.999Z</time></trkpt><trkpt lat="43.48763356956053" lon="5.347216147139373"><ele>158.0</ele><time>2026-03-25T15:47:58.999Z</time></trkpt><trkpt lat="43.487499537064636" lon="5.347190245707253"><ele>158.0</ele><time>2026-03-25T15:47:59.999Z</time></trkpt><trkpt lat="43.48736001662006" lon="5.34720452376061"><ele>158.0</ele><time>2026-03-25T15:48:00.999Z</time></trkpt><trkpt lat="43.48722002021336" lon="5.3471848276829865"><ele>158.0</ele><time>2026-03-25T15:48:01.999Z</time></trkpt><trkpt lat="43.48708919846303" lon="5.347187072661626"><ele>158.0</ele><time>2026-03-25T15:48:02.999Z</time></trkpt><trkpt lat="43.48698495318958" lon="5.347135725594483"><ele>158.4</ele><time>2026-03-25T15:48:03.999Z</time></trkpt><trkpt lat="43.486900347516006" lon="5.347095767491192"><ele>158.8</ele><time>2026-03-25T15:48:04.999Z</time></trkpt><trkpt lat="43.48682049394963" lon="5.347058732857163"><ele>159.2</ele><time>2026-03-25T15:48:05.999Z</time></trkpt><trkpt lat="43.48672993558958" lon="5.347037937337146"><ele>159.6</ele><time>2026-03-25T15:48:06.999Z</time></trkpt><trkpt lat="43.48663885290818" lon="5.346989364981264"><ele>160.0</ele><time>2026-03-25T15:48:07.999Z</time></trkpt><trkpt lat="43.486534040827344" lon="5.346988681094087"><ele>160.0</ele><time>2026-03-25T15:48:08.999Z</time></trkpt><trkpt lat="43.4864263682117" lon="5.347027869901042"><ele>160.0</ele><time>2026-03-25T15:48:09.999Z</time></trkpt><trkpt lat="43.48633293427052" lon="5.347075078051085"><ele>160.0</ele><time>2026-03-25T15:48:10.999Z</time></trkpt><trkpt lat="43.486249311843" lon="5.347077278940389"><ele>160.0</ele><time>2026-03-25T15:48:11.999Z</time></trkpt><trkpt lat="43.486177569031845" lon="5.347029422815532"><ele>160.0</ele><time>2026-03-25T15:48:12.999Z</time></trkpt><trkpt lat="43.48611280493753" lon="5.347035069268107"><ele>160.0</ele><time>2026-03-25T15:48:13.999Z</time></trkpt><trkpt lat="43.48601954377104" lon="5.347030163179169"><ele>162.0</ele><time>2026-03-25T15:48:15.999Z</time></trkpt></trkseg></trk></gpx>